<?xml version="1.0" encoding="utf-8"?>
<gpx xmlns:xsd="http://www.w3.org/2001/XMLSchema" xmlns:xsi="http://www.w3.org/2001/XMLSchema-instance" creator="eT4 META" version="1.1" xsi:schemaLocation="http://www.topografix.com/GPX/1/1 http://www.topografix.com/GPX/1/1/gpx.xsd" xmlns="http://www.topografix.com/GPX/1/1">
  <trk>
    <name>Kirchen &amp; Klöster Nord</name>
    <trkseg>
      <trkpt lat="48.684172" lon="11.613348">
        <ele>386.73</ele>
        <time>2022-05-12T00:00:00.0000000+00:00</time>
      </trkpt>
      <trkpt lat="48.684356" lon="11.61307">
        <ele>388.18</ele>
        <time>2022-05-12T00:00:07.0050000+00:00</time>
      </trkpt>
      <trkpt lat="48.684485" lon="11.612863">
        <ele>388.84</ele>
        <time>2022-05-12T00:00:12.0710000+00:00</time>
      </trkpt>
      <trkpt lat="48.684588" lon="11.612766">
        <ele>388.81</ele>
        <time>2022-05-12T00:00:15.3400000+00:00</time>
      </trkpt>
      <trkpt lat="48.684588" lon="11.612766">
        <ele>388.81</ele>
        <time>2022-05-12T00:00:15.3400000+00:00</time>
      </trkpt>
      <trkpt lat="48.684671" lon="11.612672">
        <ele>388.71</ele>
        <time>2022-05-12T00:00:18.1340000+00:00</time>
      </trkpt>
      <trkpt lat="48.684876" lon="11.61242">
        <ele>388.46</ele>
        <time>2022-05-12T00:00:25.2500000+00:00</time>
      </trkpt>
      <trkpt lat="48.685156" lon="11.612602">
        <ele>388.13</ele>
        <time>2022-05-12T00:00:33.4640000+00:00</time>
      </trkpt>
      <trkpt lat="48.685248" lon="11.612602">
        <ele>388.02</ele>
        <time>2022-05-12T00:00:35.9440000+00:00</time>
      </trkpt>
      <trkpt lat="48.685248" lon="11.612602">
        <ele>388.02</ele>
        <time>2022-05-12T00:00:35.9440000+00:00</time>
      </trkpt>
      <trkpt lat="48.685247" lon="11.612613">
        <ele>388.02</ele>
        <time>2022-05-12T00:00:36.1410000+00:00</time>
      </trkpt>
      <trkpt lat="48.685504" lon="11.612595">
        <ele>387.79</ele>
        <time>2022-05-12T00:00:43.0760000+00:00</time>
      </trkpt>
      <trkpt lat="48.686713" lon="11.612422">
        <ele>387.12</ele>
        <time>2022-05-12T00:01:15.8110000+00:00</time>
      </trkpt>
      <trkpt lat="48.687385" lon="11.612402">
        <ele>386.18</ele>
        <time>2022-05-12T00:01:33.9280000+00:00</time>
      </trkpt>
      <trkpt lat="48.687928" lon="11.612424">
        <ele>385.08</ele>
        <time>2022-05-12T00:01:48.5700000+00:00</time>
      </trkpt>
      <trkpt lat="48.687926" lon="11.612393">
        <ele>385.11</ele>
        <time>2022-05-12T00:01:49.1240000+00:00</time>
      </trkpt>
      <trkpt lat="48.687901" lon="11.612028">
        <ele>385.46</ele>
        <time>2022-05-12T00:01:55.6540000+00:00</time>
      </trkpt>
      <trkpt lat="48.687837" lon="11.611916">
        <ele>385.55</ele>
        <time>2022-05-12T00:01:58.2900000+00:00</time>
      </trkpt>
      <trkpt lat="48.687837" lon="11.611916">
        <ele>385.55</ele>
        <time>2022-05-12T00:01:58.2900000+00:00</time>
      </trkpt>
      <trkpt lat="48.687854" lon="11.611909">
        <ele>385.48</ele>
        <time>2022-05-12T00:01:58.7650000+00:00</time>
      </trkpt>
      <trkpt lat="48.68778" lon="11.611693">
        <ele>385.22</ele>
        <time>2022-05-12T00:02:03.0960000+00:00</time>
      </trkpt>
      <trkpt lat="48.687681" lon="11.611479">
        <ele>384.87</ele>
        <time>2022-05-12T00:02:07.7460000+00:00</time>
      </trkpt>
      <trkpt lat="48.687438" lon="11.611062">
        <ele>384.34</ele>
        <time>2022-05-12T00:02:17.6440000+00:00</time>
      </trkpt>
      <trkpt lat="48.686892" lon="11.610339">
        <ele>384.06</ele>
        <time>2022-05-12T00:02:37.1920000+00:00</time>
      </trkpt>
      <trkpt lat="48.686713" lon="11.610057">
        <ele>384.26</ele>
        <time>2022-05-12T00:02:44.1540000+00:00</time>
      </trkpt>
      <trkpt lat="48.686598" lon="11.609776">
        <ele>384.4</ele>
        <time>2022-05-12T00:02:50.0370000+00:00</time>
      </trkpt>
      <trkpt lat="48.686318" lon="11.608177">
        <ele>383.31</ele>
        <time>2022-05-12T00:03:19.4760000+00:00</time>
      </trkpt>
      <trkpt lat="48.686305" lon="11.607701">
        <ele>383.24</ele>
        <time>2022-05-12T00:03:27.9540000+00:00</time>
      </trkpt>
      <trkpt lat="48.686313" lon="11.607046">
        <ele>383.21</ele>
        <time>2022-05-12T00:03:39.6120000+00:00</time>
      </trkpt>
      <trkpt lat="48.686256" lon="11.606654">
        <ele>382.6</ele>
        <time>2022-05-12T00:03:46.7550000+00:00</time>
      </trkpt>
      <trkpt lat="48.686133" lon="11.605884">
        <ele>381.21</ele>
        <time>2022-05-12T00:04:00.8530000+00:00</time>
      </trkpt>
      <trkpt lat="48.686087" lon="11.605718">
        <ele>380.93</ele>
        <time>2022-05-12T00:04:04.0560000+00:00</time>
      </trkpt>
      <trkpt lat="48.685876" lon="11.605137">
        <ele>379.94</ele>
        <time>2022-05-12T00:04:15.8570000+00:00</time>
      </trkpt>
      <trkpt lat="48.685666" lon="11.604234">
        <ele>379.66</ele>
        <time>2022-05-12T00:04:32.8940000+00:00</time>
      </trkpt>
      <trkpt lat="48.685705" lon="11.604205">
        <ele>379.67</ele>
        <time>2022-05-12T00:04:34.0650000+00:00</time>
      </trkpt>
      <trkpt lat="48.685699" lon="11.604191">
        <ele>379.68</ele>
        <time>2022-05-12T00:04:34.3620000+00:00</time>
      </trkpt>
      <trkpt lat="48.685705" lon="11.604205">
        <ele>379.67</ele>
        <time>2022-05-12T00:04:34.6580000+00:00</time>
      </trkpt>
      <trkpt lat="48.685666" lon="11.604234">
        <ele>379.66</ele>
        <time>2022-05-12T00:04:35.8290000+00:00</time>
      </trkpt>
      <trkpt lat="48.685537" lon="11.60335">
        <ele>380.84</ele>
        <time>2022-05-12T00:04:51.9410000+00:00</time>
      </trkpt>
      <trkpt lat="48.685364" lon="11.602413">
        <ele>382.01</ele>
        <time>2022-05-12T00:05:09.2550000+00:00</time>
      </trkpt>
      <trkpt lat="48.685242" lon="11.601592">
        <ele>381</ele>
        <time>2022-05-12T00:05:24.2310000+00:00</time>
      </trkpt>
      <trkpt lat="48.685215" lon="11.600808">
        <ele>380.05</ele>
        <time>2022-05-12T00:05:38.2020000+00:00</time>
      </trkpt>
      <trkpt lat="48.68513" lon="11.599871">
        <ele>381.25</ele>
        <time>2022-05-12T00:05:55.0330000+00:00</time>
      </trkpt>
      <trkpt lat="48.685039" lon="11.599889">
        <ele>381.32</ele>
        <time>2022-05-12T00:05:57.5070000+00:00</time>
      </trkpt>
      <trkpt lat="48.68513" lon="11.599871">
        <ele>381.25</ele>
        <time>2022-05-12T00:05:59.9810000+00:00</time>
      </trkpt>
      <trkpt lat="48.685082" lon="11.599169">
        <ele>382</ele>
        <time>2022-05-12T00:06:12.5400000+00:00</time>
      </trkpt>
      <trkpt lat="48.685025" lon="11.59884">
        <ele>382</ele>
        <time>2022-05-12T00:06:18.5930000+00:00</time>
      </trkpt>
      <trkpt lat="48.684839" lon="11.598085">
        <ele>381.3</ele>
        <time>2022-05-12T00:06:32.9340000+00:00</time>
      </trkpt>
      <trkpt lat="48.684761" lon="11.597595">
        <ele>380.71</ele>
        <time>2022-05-12T00:06:41.9040000+00:00</time>
      </trkpt>
      <trkpt lat="48.684682" lon="11.596726">
        <ele>379.54</ele>
        <time>2022-05-12T00:06:57.5150000+00:00</time>
      </trkpt>
      <trkpt lat="48.684557" lon="11.596693">
        <ele>379.37</ele>
        <time>2022-05-12T00:07:00.9350000+00:00</time>
      </trkpt>
      <trkpt lat="48.684541" lon="11.596717">
        <ele>379.41</ele>
        <time>2022-05-12T00:07:01.5420000+00:00</time>
      </trkpt>
      <trkpt lat="48.684546" lon="11.596732">
        <ele>379.44</ele>
        <time>2022-05-12T00:07:01.8410000+00:00</time>
      </trkpt>
      <trkpt lat="48.684541" lon="11.596717">
        <ele>379.41</ele>
        <time>2022-05-12T00:07:02.1400000+00:00</time>
      </trkpt>
      <trkpt lat="48.684514" lon="11.596759">
        <ele>379.47</ele>
        <time>2022-05-12T00:07:03.1840000+00:00</time>
      </trkpt>
      <trkpt lat="48.684315" lon="11.596921">
        <ele>380.08</ele>
        <time>2022-05-12T00:07:09.2730000+00:00</time>
      </trkpt>
      <trkpt lat="48.684235" lon="11.597026">
        <ele>380.5</ele>
        <time>2022-05-12T00:07:12.1270000+00:00</time>
      </trkpt>
      <trkpt lat="48.684158" lon="11.597208">
        <ele>380.9</ele>
        <time>2022-05-12T00:07:15.9740000+00:00</time>
      </trkpt>
      <trkpt lat="48.684125" lon="11.597351">
        <ele>381.15</ele>
        <time>2022-05-12T00:07:18.6690000+00:00</time>
      </trkpt>
      <trkpt lat="48.684055" lon="11.597953">
        <ele>382.04</ele>
        <time>2022-05-12T00:07:29.5480000+00:00</time>
      </trkpt>
      <trkpt lat="48.684004" lon="11.598065">
        <ele>382.3</ele>
        <time>2022-05-12T00:07:31.9690000+00:00</time>
      </trkpt>
      <trkpt lat="48.683673" lon="11.598348">
        <ele>383.43</ele>
        <time>2022-05-12T00:07:42.2140000+00:00</time>
      </trkpt>
      <trkpt lat="48.683493" lon="11.598409">
        <ele>384.11</ele>
        <time>2022-05-12T00:07:47.1860000+00:00</time>
      </trkpt>
      <trkpt lat="48.683356" lon="11.598416">
        <ele>384.68</ele>
        <time>2022-05-12T00:07:50.8810000+00:00</time>
      </trkpt>
      <trkpt lat="48.683353" lon="11.598533">
        <ele>384.92</ele>
        <time>2022-05-12T00:07:52.9650000+00:00</time>
      </trkpt>
      <trkpt lat="48.683284" lon="11.598912">
        <ele>385.5</ele>
        <time>2022-05-12T00:07:59.9620000+00:00</time>
      </trkpt>
      <trkpt lat="48.683135" lon="11.598587">
        <ele>386.01</ele>
        <time>2022-05-12T00:08:07.0030000+00:00</time>
      </trkpt>
      <trkpt lat="48.682871" lon="11.59825">
        <ele>386.11</ele>
        <time>2022-05-12T00:08:16.3100000+00:00</time>
      </trkpt>
      <trkpt lat="48.682726" lon="11.598138">
        <ele>386.09</ele>
        <time>2022-05-12T00:08:20.6970000+00:00</time>
      </trkpt>
      <trkpt lat="48.682621" lon="11.598092">
        <ele>385.94</ele>
        <time>2022-05-12T00:08:23.6430000+00:00</time>
      </trkpt>
      <trkpt lat="48.682432" lon="11.59807">
        <ele>385.91</ele>
        <time>2022-05-12T00:08:28.7530000+00:00</time>
      </trkpt>
      <trkpt lat="48.682311" lon="11.597997">
        <ele>385.81</ele>
        <time>2022-05-12T00:08:32.2640000+00:00</time>
      </trkpt>
      <trkpt lat="48.68222" lon="11.597791">
        <ele>385.49</ele>
        <time>2022-05-12T00:08:36.6750000+00:00</time>
      </trkpt>
      <trkpt lat="48.682129" lon="11.597493">
        <ele>384.53</ele>
        <time>2022-05-12T00:08:42.5180000+00:00</time>
      </trkpt>
      <trkpt lat="48.681954" lon="11.596729">
        <ele>382.64</ele>
        <time>2022-05-12T00:08:56.9100000+00:00</time>
      </trkpt>
      <trkpt lat="48.681712" lon="11.595891">
        <ele>382.02</ele>
        <time>2022-05-12T00:09:13.1880000+00:00</time>
      </trkpt>
      <trkpt lat="48.681832" lon="11.595674">
        <ele>381.6</ele>
        <time>2022-05-12T00:09:18.2260000+00:00</time>
      </trkpt>
      <trkpt lat="48.681367" lon="11.595105">
        <ele>382.55</ele>
        <time>2022-05-12T00:09:34.3400000+00:00</time>
      </trkpt>
      <trkpt lat="48.681372" lon="11.595101">
        <ele>382.54</ele>
        <time>2022-05-12T00:09:34.4920000+00:00</time>
      </trkpt>
      <trkpt lat="48.681367" lon="11.595105">
        <ele>382.55</ele>
        <time>2022-05-12T00:09:34.6450000+00:00</time>
      </trkpt>
      <trkpt lat="48.681318" lon="11.595044">
        <ele>382.73</ele>
        <time>2022-05-12T00:09:36.3550000+00:00</time>
      </trkpt>
      <trkpt lat="48.681334" lon="11.594617">
        <ele>383.06</ele>
        <time>2022-05-12T00:09:43.9660000+00:00</time>
      </trkpt>
      <trkpt lat="48.681318" lon="11.594236">
        <ele>383.21</ele>
        <time>2022-05-12T00:09:50.7610000+00:00</time>
      </trkpt>
      <trkpt lat="48.681341" lon="11.593768">
        <ele>383.13</ele>
        <time>2022-05-12T00:09:59.1130000+00:00</time>
      </trkpt>
      <trkpt lat="48.681551" lon="11.592601">
        <ele>382.18</ele>
        <time>2022-05-12T00:10:20.6400000+00:00</time>
      </trkpt>
      <trkpt lat="48.68164" lon="11.591744">
        <ele>381.7</ele>
        <time>2022-05-12T00:10:36.0800000+00:00</time>
      </trkpt>
      <trkpt lat="48.681668" lon="11.591166">
        <ele>381.63</ele>
        <time>2022-05-12T00:10:46.3940000+00:00</time>
      </trkpt>
      <trkpt lat="48.681668" lon="11.590681">
        <ele>381.63</ele>
        <time>2022-05-12T00:10:55.0250000+00:00</time>
      </trkpt>
      <trkpt lat="48.6817" lon="11.590284">
        <ele>381.68</ele>
        <time>2022-05-12T00:11:02.1430000+00:00</time>
      </trkpt>
      <trkpt lat="48.681846" lon="11.589599">
        <ele>382.9</ele>
        <time>2022-05-12T00:11:14.9540000+00:00</time>
      </trkpt>
      <trkpt lat="48.681957" lon="11.588837">
        <ele>383.69</ele>
        <time>2022-05-12T00:11:28.8410000+00:00</time>
      </trkpt>
      <trkpt lat="48.681976" lon="11.587847">
        <ele>383.84</ele>
        <time>2022-05-12T00:11:46.4680000+00:00</time>
      </trkpt>
      <trkpt lat="48.681932" lon="11.586914">
        <ele>382.88</ele>
        <time>2022-05-12T00:12:03.1150000+00:00</time>
      </trkpt>
      <trkpt lat="48.682122" lon="11.585869">
        <ele>381.92</ele>
        <time>2022-05-12T00:12:22.4050000+00:00</time>
      </trkpt>
      <trkpt lat="48.682163" lon="11.585328">
        <ele>381.73</ele>
        <time>2022-05-12T00:12:32.0960000+00:00</time>
      </trkpt>
      <trkpt lat="48.682173" lon="11.584789">
        <ele>381.8</ele>
        <time>2022-05-12T00:12:41.6920000+00:00</time>
      </trkpt>
      <trkpt lat="48.682125" lon="11.584263">
        <ele>381.84</ele>
        <time>2022-05-12T00:12:51.1430000+00:00</time>
      </trkpt>
      <trkpt lat="48.682025" lon="11.583829">
        <ele>381.82</ele>
        <time>2022-05-12T00:12:59.3230000+00:00</time>
      </trkpt>
      <trkpt lat="48.68153" lon="11.582178">
        <ele>382.26</ele>
        <time>2022-05-12T00:13:31.5940000+00:00</time>
      </trkpt>
      <trkpt lat="48.681311" lon="11.581096">
        <ele>381.44</ele>
        <time>2022-05-12T00:13:51.7350000+00:00</time>
      </trkpt>
      <trkpt lat="48.681318" lon="11.580848">
        <ele>381.26</ele>
        <time>2022-05-12T00:13:56.1530000+00:00</time>
      </trkpt>
      <trkpt lat="48.681451" lon="11.579638">
        <ele>379.45</ele>
        <time>2022-05-12T00:14:17.9840000+00:00</time>
      </trkpt>
      <trkpt lat="48.68153" lon="11.578729">
        <ele>380.79</ele>
        <time>2022-05-12T00:14:34.3010000+00:00</time>
      </trkpt>
      <trkpt lat="48.681541" lon="11.578008">
        <ele>383.97</ele>
        <time>2022-05-12T00:14:47.1360000+00:00</time>
      </trkpt>
      <trkpt lat="48.681503" lon="11.576833">
        <ele>388.73</ele>
        <time>2022-05-12T00:15:08.0730000+00:00</time>
      </trkpt>
      <trkpt lat="48.681722" lon="11.574876">
        <ele>396.69</ele>
        <time>2022-05-12T00:15:43.3980000+00:00</time>
      </trkpt>
      <trkpt lat="48.681731" lon="11.573741">
        <ele>397.95</ele>
        <time>2022-05-12T00:16:03.5990000+00:00</time>
      </trkpt>
      <trkpt lat="48.681815" lon="11.572956">
        <ele>394.04</ele>
        <time>2022-05-12T00:16:17.7520000+00:00</time>
      </trkpt>
      <trkpt lat="48.681839" lon="11.572451">
        <ele>392.26</ele>
        <time>2022-05-12T00:16:26.7630000+00:00</time>
      </trkpt>
      <trkpt lat="48.681878" lon="11.570218">
        <ele>383.98</ele>
        <time>2022-05-12T00:17:06.5180000+00:00</time>
      </trkpt>
      <trkpt lat="48.681791" lon="11.568615">
        <ele>388.91</ele>
        <time>2022-05-12T00:17:35.1420000+00:00</time>
      </trkpt>
      <trkpt lat="48.681496" lon="11.567446">
        <ele>388.56</ele>
        <time>2022-05-12T00:17:57.4150000+00:00</time>
      </trkpt>
      <trkpt lat="48.681027" lon="11.566115">
        <ele>383.29</ele>
        <time>2022-05-12T00:18:24.2660000+00:00</time>
      </trkpt>
      <trkpt lat="48.680814" lon="11.565195">
        <ele>380.36</ele>
        <time>2022-05-12T00:18:41.6170000+00:00</time>
      </trkpt>
      <trkpt lat="48.6806" lon="11.56411">
        <ele>378.61</ele>
        <time>2022-05-12T00:19:01.7700000+00:00</time>
      </trkpt>
      <trkpt lat="48.680398" lon="11.563018">
        <ele>384.92</ele>
        <time>2022-05-12T00:19:21.9530000+00:00</time>
      </trkpt>
      <trkpt lat="48.680363" lon="11.561292">
        <ele>382.24</ele>
        <time>2022-05-12T00:19:52.6860000+00:00</time>
      </trkpt>
      <trkpt lat="48.680113" lon="11.559744">
        <ele>379.04</ele>
        <time>2022-05-12T00:20:21.0490000+00:00</time>
      </trkpt>
      <trkpt lat="48.679987" lon="11.559116">
        <ele>378.51</ele>
        <time>2022-05-12T00:20:32.7310000+00:00</time>
      </trkpt>
      <trkpt lat="48.679812" lon="11.558709">
        <ele>378.74</ele>
        <time>2022-05-12T00:20:41.3750000+00:00</time>
      </trkpt>
      <trkpt lat="48.678965" lon="11.557627">
        <ele>383.63</ele>
        <time>2022-05-12T00:21:11.2430000+00:00</time>
      </trkpt>
      <trkpt lat="48.6783" lon="11.556842">
        <ele>386.96</ele>
        <time>2022-05-12T00:21:33.9700000+00:00</time>
      </trkpt>
      <trkpt lat="48.677238" lon="11.555045">
        <ele>384.02</ele>
        <time>2022-05-12T00:22:16.8940000+00:00</time>
      </trkpt>
      <trkpt lat="48.676686" lon="11.553976">
        <ele>382.08</ele>
        <time>2022-05-12T00:22:41.0480000+00:00</time>
      </trkpt>
      <trkpt lat="48.676339" lon="11.552935">
        <ele>382.2</ele>
        <time>2022-05-12T00:23:01.8040000+00:00</time>
      </trkpt>
      <trkpt lat="48.67584" lon="11.551233999999999">
        <ele>380.68</ele>
        <time>2022-05-12T00:23:34.9330000+00:00</time>
      </trkpt>
      <trkpt lat="48.675391" lon="11.549998">
        <ele>380.39</ele>
        <time>2022-05-12T00:24:00.0420000+00:00</time>
      </trkpt>
      <trkpt lat="48.675194" lon="11.549542">
        <ele>380.92</ele>
        <time>2022-05-12T00:24:09.7420000+00:00</time>
      </trkpt>
      <trkpt lat="48.674428" lon="11.547133">
        <ele>382.4</ele>
        <time>2022-05-12T00:24:57.3330000+00:00</time>
      </trkpt>
      <trkpt lat="48.674043" lon="11.545688">
        <ele>385.66</ele>
        <time>2022-05-12T00:25:25.0680000+00:00</time>
      </trkpt>
      <trkpt lat="48.673916" lon="11.545123">
        <ele>386.54</ele>
        <time>2022-05-12T00:25:35.6920000+00:00</time>
      </trkpt>
      <trkpt lat="48.673738" lon="11.54511">
        <ele>387.19</ele>
        <time>2022-05-12T00:25:40.4950000+00:00</time>
      </trkpt>
      <trkpt lat="48.673558" lon="11.545026">
        <ele>387.7</ele>
        <time>2022-05-12T00:25:45.5730000+00:00</time>
      </trkpt>
      <trkpt lat="48.673507" lon="11.545257">
        <ele>388.17</ele>
        <time>2022-05-12T00:25:49.9080000+00:00</time>
      </trkpt>
      <trkpt lat="48.673558" lon="11.545026">
        <ele>387.7</ele>
        <time>2022-05-12T00:25:54.2440000+00:00</time>
      </trkpt>
      <trkpt lat="48.673098" lon="11.544811">
        <ele>388.31</ele>
        <time>2022-05-12T00:26:07.2200000+00:00</time>
      </trkpt>
      <trkpt lat="48.672655" lon="11.544681">
        <ele>388.56</ele>
        <time>2022-05-12T00:26:19.3840000+00:00</time>
      </trkpt>
      <trkpt lat="48.670661" lon="11.54459">
        <ele>390.52</ele>
        <time>2022-05-12T00:27:13.1570000+00:00</time>
      </trkpt>
      <trkpt lat="48.670203" lon="11.544276">
        <ele>391.91</ele>
        <time>2022-05-12T00:27:26.7090000+00:00</time>
      </trkpt>
      <trkpt lat="48.669983" lon="11.544219">
        <ele>392.84</ele>
        <time>2022-05-12T00:27:32.7250000+00:00</time>
      </trkpt>
      <trkpt lat="48.668805999999996" lon="11.54444">
        <ele>398.74</ele>
        <time>2022-05-12T00:28:04.6950000+00:00</time>
      </trkpt>
      <trkpt lat="48.668174" lon="11.544949">
        <ele>400.16</ele>
        <time>2022-05-12T00:28:23.9900000+00:00</time>
      </trkpt>
      <trkpt lat="48.666645" lon="11.546485">
        <ele>399.69</ele>
        <time>2022-05-12T00:29:13.4510000+00:00</time>
      </trkpt>
      <trkpt lat="48.666069" lon="11.546903">
        <ele>397.79</ele>
        <time>2022-05-12T00:29:30.6690000+00:00</time>
      </trkpt>
      <trkpt lat="48.665349" lon="11.546917">
        <ele>399.58</ele>
        <time>2022-05-12T00:29:50.0780000+00:00</time>
      </trkpt>
      <trkpt lat="48.662931" lon="11.546865">
        <ele>404.84</ele>
        <time>2022-05-12T00:30:55.2630000+00:00</time>
      </trkpt>
      <trkpt lat="48.66208" lon="11.547036">
        <ele>403.31</ele>
        <time>2022-05-12T00:31:18.4030000+00:00</time>
      </trkpt>
      <trkpt lat="48.661516" lon="11.547046">
        <ele>402.49</ele>
        <time>2022-05-12T00:31:33.6070000+00:00</time>
      </trkpt>
      <trkpt lat="48.660675" lon="11.547116">
        <ele>403.4</ele>
        <time>2022-05-12T00:31:56.3100000+00:00</time>
      </trkpt>
      <trkpt lat="48.660191" lon="11.547266">
        <ele>405.71</ele>
        <time>2022-05-12T00:32:09.6270000+00:00</time>
      </trkpt>
      <trkpt lat="48.659554" lon="11.547301">
        <ele>412.2</ele>
        <time>2022-05-12T00:32:26.8090000+00:00</time>
      </trkpt>
      <trkpt lat="48.65799" lon="11.547633">
        <ele>415.54</ele>
        <time>2022-05-12T00:33:09.3800000+00:00</time>
      </trkpt>
      <trkpt lat="48.65753" lon="11.547802">
        <ele>415.65</ele>
        <time>2022-05-12T00:33:22.1390000+00:00</time>
      </trkpt>
      <trkpt lat="48.657202" lon="11.54811">
        <ele>417.48</ele>
        <time>2022-05-12T00:33:32.5430000+00:00</time>
      </trkpt>
      <trkpt lat="48.65663" lon="11.548796">
        <ele>419.05</ele>
        <time>2022-05-12T00:33:52.2140000+00:00</time>
      </trkpt>
      <trkpt lat="48.656378" lon="11.549028">
        <ele>418.13</ele>
        <time>2022-05-12T00:34:00.1640000+00:00</time>
      </trkpt>
      <trkpt lat="48.65516" lon="11.550018">
        <ele>414.91</ele>
        <time>2022-05-12T00:34:37.4290000+00:00</time>
      </trkpt>
      <trkpt lat="48.654634" lon="11.550575">
        <ele>414.03</ele>
        <time>2022-05-12T00:34:54.7320000+00:00</time>
      </trkpt>
      <trkpt lat="48.653833" lon="11.551132">
        <ele>415.4</ele>
        <time>2022-05-12T00:35:18.4930000+00:00</time>
      </trkpt>
      <trkpt lat="48.652986" lon="11.551688">
        <ele>415.68</ele>
        <time>2022-05-12T00:35:43.3780000+00:00</time>
      </trkpt>
      <trkpt lat="48.652996" lon="11.551732">
        <ele>415.72</ele>
        <time>2022-05-12T00:35:44.2070000+00:00</time>
      </trkpt>
      <trkpt lat="48.653018" lon="11.551722">
        <ele>415.72</ele>
        <time>2022-05-12T00:35:44.8260000+00:00</time>
      </trkpt>
      <trkpt lat="48.652996" lon="11.551732">
        <ele>415.72</ele>
        <time>2022-05-12T00:35:45.4460000+00:00</time>
      </trkpt>
      <trkpt lat="48.652787" lon="11.549756">
        <ele>416.01</ele>
        <time>2022-05-12T00:36:21.0810000+00:00</time>
      </trkpt>
      <trkpt lat="48.652461" lon="11.547195">
        <ele>418.14</ele>
        <time>2022-05-12T00:37:07.5240000+00:00</time>
      </trkpt>
      <trkpt lat="48.652165" lon="11.546002">
        <ele>416.81</ele>
        <time>2022-05-12T00:37:30.2180000+00:00</time>
      </trkpt>
      <trkpt lat="48.651831" lon="11.544941">
        <ele>412.35</ele>
        <time>2022-05-12T00:37:51.1470000+00:00</time>
      </trkpt>
      <trkpt lat="48.651626" lon="11.544378">
        <ele>407.04</ele>
        <time>2022-05-12T00:38:02.5940000+00:00</time>
      </trkpt>
      <trkpt lat="48.6514" lon="11.543653">
        <ele>399.97</ele>
        <time>2022-05-12T00:38:16.8700000+00:00</time>
      </trkpt>
      <trkpt lat="48.65095" lon="11.542093">
        <ele>398.44</ele>
        <time>2022-05-12T00:38:47.1830000+00:00</time>
      </trkpt>
      <trkpt lat="48.650781" lon="11.541364">
        <ele>398.97</ele>
        <time>2022-05-12T00:39:00.9410000+00:00</time>
      </trkpt>
      <trkpt lat="48.6507" lon="11.5404">
        <ele>397.52</ele>
        <time>2022-05-12T00:39:18.2460000+00:00</time>
      </trkpt>
      <trkpt lat="48.650785" lon="11.539199">
        <ele>399.7</ele>
        <time>2022-05-12T00:39:39.7560000+00:00</time>
      </trkpt>
      <trkpt lat="48.65093" lon="11.537789">
        <ele>403.16</ele>
        <time>2022-05-12T00:40:05.1680000+00:00</time>
      </trkpt>
      <trkpt lat="48.651055" lon="11.536322">
        <ele>405.46</ele>
        <time>2022-05-12T00:40:31.5080000+00:00</time>
      </trkpt>
      <trkpt lat="48.651042" lon="11.535761">
        <ele>406.06</ele>
        <time>2022-05-12T00:40:41.5050000+00:00</time>
      </trkpt>
      <trkpt lat="48.651003" lon="11.535247">
        <ele>406.22</ele>
        <time>2022-05-12T00:40:50.7180000+00:00</time>
      </trkpt>
      <trkpt lat="48.651095" lon="11.534782">
        <ele>406.77</ele>
        <time>2022-05-12T00:40:59.3620000+00:00</time>
      </trkpt>
      <trkpt lat="48.651243" lon="11.533852">
        <ele>405.55</ele>
        <time>2022-05-12T00:41:16.3970000+00:00</time>
      </trkpt>
      <trkpt lat="48.651319" lon="11.53324">
        <ele>404</ele>
        <time>2022-05-12T00:41:27.4870000+00:00</time>
      </trkpt>
      <trkpt lat="48.651413" lon="11.532743">
        <ele>402.57</ele>
        <time>2022-05-12T00:41:36.6930000+00:00</time>
      </trkpt>
      <trkpt lat="48.651478" lon="11.532559">
        <ele>401.89</ele>
        <time>2022-05-12T00:41:40.4080000+00:00</time>
      </trkpt>
      <trkpt lat="48.651644" lon="11.532204">
        <ele>400.9</ele>
        <time>2022-05-12T00:41:48.1530000+00:00</time>
      </trkpt>
      <trkpt lat="48.652923" lon="11.529932">
        <ele>393.43</ele>
        <time>2022-05-12T00:42:41.3090000+00:00</time>
      </trkpt>
      <trkpt lat="48.653283" lon="11.529022">
        <ele>391.57</ele>
        <time>2022-05-12T00:43:00.1970000+00:00</time>
      </trkpt>
      <trkpt lat="48.65331" lon="11.528738">
        <ele>391.02</ele>
        <time>2022-05-12T00:43:05.3060000+00:00</time>
      </trkpt>
      <trkpt lat="48.653295" lon="11.528209">
        <ele>390.38</ele>
        <time>2022-05-12T00:43:14.7340000+00:00</time>
      </trkpt>
      <trkpt lat="48.65317" lon="11.527605">
        <ele>390.38</ele>
        <time>2022-05-12T00:43:26.0050000+00:00</time>
      </trkpt>
      <trkpt lat="48.653016" lon="11.52698">
        <ele>391.51</ele>
        <time>2022-05-12T00:43:37.8840000+00:00</time>
      </trkpt>
      <trkpt lat="48.652909" lon="11.526769">
        <ele>391.81</ele>
        <time>2022-05-12T00:43:42.6200000+00:00</time>
      </trkpt>
      <trkpt lat="48.652633" lon="11.525826">
        <ele>392.76</ele>
        <time>2022-05-12T00:44:00.9870000+00:00</time>
      </trkpt>
      <trkpt lat="48.652743" lon="11.525773">
        <ele>392.63</ele>
        <time>2022-05-12T00:44:04.0990000+00:00</time>
      </trkpt>
      <trkpt lat="48.653229" lon="11.527336">
        <ele>390.63</ele>
        <time>2022-05-12T00:44:34.8600000+00:00</time>
      </trkpt>
      <trkpt lat="48.653258" lon="11.52689">
        <ele>391.11</ele>
        <time>2022-05-12T00:44:42.8410000+00:00</time>
      </trkpt>
      <trkpt lat="48.653439" lon="11.525877">
        <ele>392.42</ele>
        <time>2022-05-12T00:45:01.5270000+00:00</time>
      </trkpt>
      <trkpt lat="48.653796" lon="11.52453">
        <ele>394.66</ele>
        <time>2022-05-12T00:45:27.3720000+00:00</time>
      </trkpt>
      <trkpt lat="48.654176" lon="11.523191">
        <ele>397.18</ele>
        <time>2022-05-12T00:45:53.3220000+00:00</time>
      </trkpt>
      <trkpt lat="48.654383" lon="11.522275">
        <ele>399.5</ele>
        <time>2022-05-12T00:46:10.5610000+00:00</time>
      </trkpt>
      <trkpt lat="48.65445" lon="11.521388">
        <ele>400.82</ele>
        <time>2022-05-12T00:46:26.4590000+00:00</time>
      </trkpt>
      <trkpt lat="48.654458" lon="11.520588">
        <ele>401</ele>
        <time>2022-05-12T00:46:40.7060000+00:00</time>
      </trkpt>
      <trkpt lat="48.654402" lon="11.519959">
        <ele>401.07</ele>
        <time>2022-05-12T00:46:52.0070000+00:00</time>
      </trkpt>
      <trkpt lat="48.654287" lon="11.519432">
        <ele>401.31</ele>
        <time>2022-05-12T00:47:01.8900000+00:00</time>
      </trkpt>
      <trkpt lat="48.654064" lon="11.518828">
        <ele>401.88</ele>
        <time>2022-05-12T00:47:14.2110000+00:00</time>
      </trkpt>
      <trkpt lat="48.653353" lon="11.516547">
        <ele>397.12</ele>
        <time>2022-05-12T00:47:59.1230000+00:00</time>
      </trkpt>
      <trkpt lat="48.652995" lon="11.515504">
        <ele>393.14</ele>
        <time>2022-05-12T00:48:20.0540000+00:00</time>
      </trkpt>
      <trkpt lat="48.652818" lon="11.514692">
        <ele>391.29</ele>
        <time>2022-05-12T00:48:35.2800000+00:00</time>
      </trkpt>
      <trkpt lat="48.652739" lon="11.514139">
        <ele>391.73</ele>
        <time>2022-05-12T00:48:45.3550000+00:00</time>
      </trkpt>
      <trkpt lat="48.652539" lon="11.512402">
        <ele>394.39</ele>
        <time>2022-05-12T00:49:16.7530000+00:00</time>
      </trkpt>
      <trkpt lat="48.65246" lon="11.512084">
        <ele>393.82</ele>
        <time>2022-05-12T00:49:22.8030000+00:00</time>
      </trkpt>
      <trkpt lat="48.652602" lon="11.511889">
        <ele>393.06</ele>
        <time>2022-05-12T00:49:27.9710000+00:00</time>
      </trkpt>
      <trkpt lat="48.652531" lon="11.511503">
        <ele>392.46</ele>
        <time>2022-05-12T00:49:35.1060000+00:00</time>
      </trkpt>
      <trkpt lat="48.652574" lon="11.510773">
        <ele>392.19</ele>
        <time>2022-05-12T00:49:48.1570000+00:00</time>
      </trkpt>
      <trkpt lat="48.653183" lon="11.507726">
        <ele>391.96</ele>
        <time>2022-05-12T00:50:44.8440000+00:00</time>
      </trkpt>
      <trkpt lat="48.653353" lon="11.507168">
        <ele>390.73</ele>
        <time>2022-05-12T00:50:55.7860000+00:00</time>
      </trkpt>
      <trkpt lat="48.653566" lon="11.506846">
        <ele>389.34</ele>
        <time>2022-05-12T00:51:03.9010000+00:00</time>
      </trkpt>
      <trkpt lat="48.65358" lon="11.506224">
        <ele>389.23</ele>
        <time>2022-05-12T00:51:14.9830000+00:00</time>
      </trkpt>
      <trkpt lat="48.653651" lon="11.505537">
        <ele>387.98</ele>
        <time>2022-05-12T00:51:27.3650000+00:00</time>
      </trkpt>
      <trkpt lat="48.654388" lon="11.501954">
        <ele>385.85</ele>
        <time>2022-05-12T00:52:34.1880000+00:00</time>
      </trkpt>
      <trkpt lat="48.65453" lon="11.501181">
        <ele>389.82</ele>
        <time>2022-05-12T00:52:48.4750000+00:00</time>
      </trkpt>
      <trkpt lat="48.65694" lon="11.489659">
        <ele>375.12</ele>
        <time>2022-05-12T00:56:23.6780000+00:00</time>
      </trkpt>
      <trkpt lat="48.657818" lon="11.48556">
        <ele>373.89</ele>
        <time>2022-05-12T00:57:40.4050000+00:00</time>
      </trkpt>
      <trkpt lat="48.658867" lon="11.480475">
        <ele>375.93</ele>
        <time>2022-05-12T00:59:15.2570000+00:00</time>
      </trkpt>
      <trkpt lat="48.659264" lon="11.478157">
        <ele>375.55</ele>
        <time>2022-05-12T00:59:57.8940000+00:00</time>
      </trkpt>
      <trkpt lat="48.658981" lon="11.477921">
        <ele>375.56</ele>
        <time>2022-05-12T01:00:06.6030000+00:00</time>
      </trkpt>
      <trkpt lat="48.6584" lon="11.477771">
        <ele>376.26</ele>
        <time>2022-05-12T01:00:22.4900000+00:00</time>
      </trkpt>
      <trkpt lat="48.658395" lon="11.477823">
        <ele>376.27</ele>
        <time>2022-05-12T01:00:23.4260000+00:00</time>
      </trkpt>
      <trkpt lat="48.658345" lon="11.477811">
        <ele>376.33</ele>
        <time>2022-05-12T01:00:24.7910000+00:00</time>
      </trkpt>
      <trkpt lat="48.658026" lon="11.477572">
        <ele>376.71</ele>
        <time>2022-05-12T01:00:34.3850000+00:00</time>
      </trkpt>
      <trkpt lat="48.657811" lon="11.47719">
        <ele>376.97</ele>
        <time>2022-05-12T01:00:43.3210000+00:00</time>
      </trkpt>
      <trkpt lat="48.657763" lon="11.476785">
        <ele>376.97</ele>
        <time>2022-05-12T01:00:50.6470000+00:00</time>
      </trkpt>
      <trkpt lat="48.657784" lon="11.476517">
        <ele>377</ele>
        <time>2022-05-12T01:00:55.4530000+00:00</time>
      </trkpt>
      <trkpt lat="48.657906" lon="11.476085">
        <ele>376.63</ele>
        <time>2022-05-12T01:01:03.8180000+00:00</time>
      </trkpt>
      <trkpt lat="48.657969" lon="11.475769">
        <ele>376.18</ele>
        <time>2022-05-12T01:01:09.6950000+00:00</time>
      </trkpt>
      <trkpt lat="48.657987" lon="11.475313">
        <ele>375.76</ele>
        <time>2022-05-12T01:01:17.8290000+00:00</time>
      </trkpt>
      <trkpt lat="48.658128" lon="11.475342">
        <ele>375.59</ele>
        <time>2022-05-12T01:01:21.6650000+00:00</time>
      </trkpt>
      <trkpt lat="48.658232" lon="11.475335">
        <ele>375.46</ele>
        <time>2022-05-12T01:01:24.4710000+00:00</time>
      </trkpt>
      <trkpt lat="48.658328" lon="11.475216">
        <ele>375.35</ele>
        <time>2022-05-12T01:01:27.8150000+00:00</time>
      </trkpt>
      <trkpt lat="48.658494" lon="11.474587">
        <ele>375.18</ele>
        <time>2022-05-12T01:01:39.8760000+00:00</time>
      </trkpt>
      <trkpt lat="48.658954" lon="11.473111">
        <ele>377.25</ele>
        <time>2022-05-12T01:02:08.9340000+00:00</time>
      </trkpt>
      <trkpt lat="48.659352" lon="11.472074">
        <ele>376.77</ele>
        <time>2022-05-12T01:02:30.2890000+00:00</time>
      </trkpt>
      <trkpt lat="48.659134" lon="11.4719">
        <ele>376.43</ele>
        <time>2022-05-12T01:02:36.9320000+00:00</time>
      </trkpt>
      <trkpt lat="48.65921" lon="11.471762">
        <ele>376.66</ele>
        <time>2022-05-12T01:02:40.1310000+00:00</time>
      </trkpt>
      <trkpt lat="48.659165" lon="11.471701">
        <ele>376.65</ele>
        <time>2022-05-12T01:02:41.7590000+00:00</time>
      </trkpt>
      <trkpt lat="48.65921" lon="11.471762">
        <ele>376.66</ele>
        <time>2022-05-12T01:02:43.3870000+00:00</time>
      </trkpt>
      <trkpt lat="48.659312" lon="11.471576">
        <ele>376.88</ele>
        <time>2022-05-12T01:02:47.6910000+00:00</time>
      </trkpt>
      <trkpt lat="48.659506" lon="11.47093">
        <ele>376.65</ele>
        <time>2022-05-12T01:03:00.3260000+00:00</time>
      </trkpt>
      <trkpt lat="48.65968" lon="11.470473">
        <ele>376.31</ele>
        <time>2022-05-12T01:03:09.7180000+00:00</time>
      </trkpt>
      <trkpt lat="48.65976" lon="11.470139">
        <ele>376.83</ele>
        <time>2022-05-12T01:03:16.0440000+00:00</time>
      </trkpt>
      <trkpt lat="48.659788" lon="11.469839">
        <ele>377.27</ele>
        <time>2022-05-12T01:03:21.4380000+00:00</time>
      </trkpt>
      <trkpt lat="48.659875" lon="11.46929">
        <ele>378.07</ele>
        <time>2022-05-12T01:03:31.4900000+00:00</time>
      </trkpt>
      <trkpt lat="48.659879" lon="11.468273">
        <ele>379.6</ele>
        <time>2022-05-12T01:03:49.5980000+00:00</time>
      </trkpt>
      <trkpt lat="48.659818" lon="11.468015">
        <ele>379.91</ele>
        <time>2022-05-12T01:03:54.4770000+00:00</time>
      </trkpt>
      <trkpt lat="48.659789" lon="11.468029">
        <ele>379.9</ele>
        <time>2022-05-12T01:03:55.2970000+00:00</time>
      </trkpt>
      <trkpt lat="48.659818" lon="11.468015">
        <ele>379.91</ele>
        <time>2022-05-12T01:03:56.1180000+00:00</time>
      </trkpt>
      <trkpt lat="48.659728" lon="11.467634">
        <ele>380.37</ele>
        <time>2022-05-12T01:04:03.3220000+00:00</time>
      </trkpt>
      <trkpt lat="48.659627" lon="11.467475">
        <ele>380.56</ele>
        <time>2022-05-12T01:04:07.2500000+00:00</time>
      </trkpt>
      <trkpt lat="48.659571" lon="11.467265">
        <ele>380.81</ele>
        <time>2022-05-12T01:04:11.2820000+00:00</time>
      </trkpt>
      <trkpt lat="48.659399" lon="11.46702">
        <ele>381.02</ele>
        <time>2022-05-12T01:04:17.6480000+00:00</time>
      </trkpt>
      <trkpt lat="48.659295" lon="11.467">
        <ele>381.27</ele>
        <time>2022-05-12T01:04:20.4740000+00:00</time>
      </trkpt>
      <trkpt lat="48.658898" lon="11.46672">
        <ele>382.17</ele>
        <time>2022-05-12T01:04:32.2790000+00:00</time>
      </trkpt>
      <trkpt lat="48.658691" lon="11.466642">
        <ele>382.77</ele>
        <time>2022-05-12T01:04:38.0290000+00:00</time>
      </trkpt>
      <trkpt lat="48.657999" lon="11.466652">
        <ele>382.26</ele>
        <time>2022-05-12T01:04:56.6830000+00:00</time>
      </trkpt>
      <trkpt lat="48.657528" lon="11.466692">
        <ele>382.15</ele>
        <time>2022-05-12T01:05:09.3990000+00:00</time>
      </trkpt>
      <trkpt lat="48.657535" lon="11.46672">
        <ele>382.16</ele>
        <time>2022-05-12T01:05:09.9320000+00:00</time>
      </trkpt>
      <trkpt lat="48.657528" lon="11.466692">
        <ele>382.15</ele>
        <time>2022-05-12T01:05:10.4660000+00:00</time>
      </trkpt>
      <trkpt lat="48.656666" lon="11.466915">
        <ele>383.45</ele>
        <time>2022-05-12T01:05:34.0380000+00:00</time>
      </trkpt>
      <trkpt lat="48.654943" lon="11.467635">
        <ele>381.81</ele>
        <time>2022-05-12T01:06:22.2190000+00:00</time>
      </trkpt>
      <trkpt lat="48.654549" lon="11.467681">
        <ele>380.53</ele>
        <time>2022-05-12T01:06:32.8710000+00:00</time>
      </trkpt>
      <trkpt lat="48.654122" lon="11.467469">
        <ele>381.05</ele>
        <time>2022-05-12T01:06:44.9840000+00:00</time>
      </trkpt>
      <trkpt lat="48.653811" lon="11.467187">
        <ele>381.93</ele>
        <time>2022-05-12T01:06:54.7560000+00:00</time>
      </trkpt>
      <trkpt lat="48.653603" lon="11.467172">
        <ele>381.72</ele>
        <time>2022-05-12T01:07:00.3690000+00:00</time>
      </trkpt>
      <trkpt lat="48.653196" lon="11.46723">
        <ele>380.33</ele>
        <time>2022-05-12T01:07:11.3890000+00:00</time>
      </trkpt>
      <trkpt lat="48.65283" lon="11.467209">
        <ele>379.24</ele>
        <time>2022-05-12T01:07:21.2620000+00:00</time>
      </trkpt>
      <trkpt lat="48.652684" lon="11.467172">
        <ele>378.97</ele>
        <time>2022-05-12T01:07:25.2520000+00:00</time>
      </trkpt>
      <trkpt lat="48.652156" lon="11.466805">
        <ele>379.34</ele>
        <time>2022-05-12T01:07:40.9130000+00:00</time>
      </trkpt>
      <trkpt lat="48.651947" lon="11.466568">
        <ele>379.98</ele>
        <time>2022-05-12T01:07:47.9520000+00:00</time>
      </trkpt>
      <trkpt lat="48.651718" lon="11.466254">
        <ele>381.42</ele>
        <time>2022-05-12T01:07:56.2810000+00:00</time>
      </trkpt>
      <trkpt lat="48.651548" lon="11.4661">
        <ele>382.25</ele>
        <time>2022-05-12T01:08:01.6210000+00:00</time>
      </trkpt>
      <trkpt lat="48.651312" lon="11.465971">
        <ele>382.56</ele>
        <time>2022-05-12T01:08:08.3850000+00:00</time>
      </trkpt>
      <trkpt lat="48.649793" lon="11.465903">
        <ele>381.99</ele>
        <time>2022-05-12T01:08:49.3480000+00:00</time>
      </trkpt>
      <trkpt lat="48.649704" lon="11.466115">
        <ele>382.28</ele>
        <time>2022-05-12T01:08:53.8210000+00:00</time>
      </trkpt>
      <trkpt lat="48.649574" lon="11.466239">
        <ele>382.22</ele>
        <time>2022-05-12T01:08:57.9630000+00:00</time>
      </trkpt>
      <trkpt lat="48.649381" lon="11.466379">
        <ele>381.45</ele>
        <time>2022-05-12T01:09:03.7320000+00:00</time>
      </trkpt>
      <trkpt lat="48.648844" lon="11.46657">
        <ele>378.73</ele>
        <time>2022-05-12T01:09:18.6010000+00:00</time>
      </trkpt>
      <trkpt lat="48.648705" lon="11.466658">
        <ele>378.26</ele>
        <time>2022-05-12T01:09:22.6630000+00:00</time>
      </trkpt>
      <trkpt lat="48.648561" lon="11.4668">
        <ele>378.41</ele>
        <time>2022-05-12T01:09:27.2950000+00:00</time>
      </trkpt>
      <trkpt lat="48.648313" lon="11.467168">
        <ele>379.9</ele>
        <time>2022-05-12T01:09:36.6570000+00:00</time>
      </trkpt>
      <trkpt lat="48.647611" lon="11.468332">
        <ele>384.97</ele>
        <time>2022-05-12T01:10:04.7240000+00:00</time>
      </trkpt>
      <trkpt lat="48.647306" lon="11.468909">
        <ele>383.17</ele>
        <time>2022-05-12T01:10:17.8840000+00:00</time>
      </trkpt>
      <trkpt lat="48.647091" lon="11.469105">
        <ele>381.15</ele>
        <time>2022-05-12T01:10:24.6500000+00:00</time>
      </trkpt>
      <trkpt lat="48.646805" lon="11.469263">
        <ele>379.57</ele>
        <time>2022-05-12T01:10:32.8560000+00:00</time>
      </trkpt>
      <trkpt lat="48.646708" lon="11.469157">
        <ele>379.62</ele>
        <time>2022-05-12T01:10:36.0810000+00:00</time>
      </trkpt>
      <trkpt lat="48.6465" lon="11.468748">
        <ele>379.89</ele>
        <time>2022-05-12T01:10:45.2730000+00:00</time>
      </trkpt>
      <trkpt lat="48.645565" lon="11.466458">
        <ele>379.65</ele>
        <time>2022-05-12T01:11:33.2160000+00:00</time>
      </trkpt>
      <trkpt lat="48.645395" lon="11.466162">
        <ele>379.58</ele>
        <time>2022-05-12T01:11:40.2010000+00:00</time>
      </trkpt>
      <trkpt lat="48.645214" lon="11.466015">
        <ele>379.19</ele>
        <time>2022-05-12T01:11:45.7380000+00:00</time>
      </trkpt>
      <trkpt lat="48.645082" lon="11.465977">
        <ele>379.01</ele>
        <time>2022-05-12T01:11:49.3600000+00:00</time>
      </trkpt>
      <trkpt lat="48.644939" lon="11.466003">
        <ele>378.76</ele>
        <time>2022-05-12T01:11:53.2430000+00:00</time>
      </trkpt>
      <trkpt lat="48.642226" lon="11.467429">
        <ele>376.2</ele>
        <time>2022-05-12T01:13:10.6570000+00:00</time>
      </trkpt>
      <trkpt lat="48.640993" lon="11.468023">
        <ele>377.98</ele>
        <time>2022-05-12T01:13:45.5370000+00:00</time>
      </trkpt>
      <trkpt lat="48.640396" lon="11.468233">
        <ele>377.69</ele>
        <time>2022-05-12T01:14:02.0580000+00:00</time>
      </trkpt>
      <trkpt lat="48.63662" lon="11.469261">
        <ele>381.34</ele>
        <time>2022-05-12T01:15:45.4750000+00:00</time>
      </trkpt>
      <trkpt lat="48.635995" lon="11.46946">
        <ele>380.86</ele>
        <time>2022-05-12T01:16:02.6910000+00:00</time>
      </trkpt>
      <trkpt lat="48.632805" lon="11.470971">
        <ele>384.64</ele>
        <time>2022-05-12T01:17:32.7940000+00:00</time>
      </trkpt>
      <trkpt lat="48.631743" lon="11.471512">
        <ele>385.36</ele>
        <time>2022-05-12T01:18:02.9990000+00:00</time>
      </trkpt>
      <trkpt lat="48.631342" lon="11.47181">
        <ele>386.25</ele>
        <time>2022-05-12T01:18:15.0410000+00:00</time>
      </trkpt>
      <trkpt lat="48.630698" lon="11.472376">
        <ele>388.42</ele>
        <time>2022-05-12T01:18:35.1170000+00:00</time>
      </trkpt>
      <trkpt lat="48.629492" lon="11.473534">
        <ele>388.97</ele>
        <time>2022-05-12T01:19:13.6180000+00:00</time>
      </trkpt>
      <trkpt lat="48.629347" lon="11.473785">
        <ele>389.62</ele>
        <time>2022-05-12T01:19:19.5570000+00:00</time>
      </trkpt>
      <trkpt lat="48.629288" lon="11.474035">
        <ele>389.97</ele>
        <time>2022-05-12T01:19:24.2870000+00:00</time>
      </trkpt>
      <trkpt lat="48.629256" lon="11.474216">
        <ele>390.19</ele>
        <time>2022-05-12T01:19:27.6250000+00:00</time>
      </trkpt>
      <trkpt lat="48.629246" lon="11.474662">
        <ele>390.47</ele>
        <time>2022-05-12T01:19:35.5750000+00:00</time>
      </trkpt>
      <trkpt lat="48.629215" lon="11.474975">
        <ele>391.15</ele>
        <time>2022-05-12T01:19:41.2140000+00:00</time>
      </trkpt>
      <trkpt lat="48.629175" lon="11.47512">
        <ele>391.65</ele>
        <time>2022-05-12T01:19:44.0130000+00:00</time>
      </trkpt>
      <trkpt lat="48.629134" lon="11.475183">
        <ele>392.03</ele>
        <time>2022-05-12T01:19:45.5880000+00:00</time>
      </trkpt>
      <trkpt lat="48.628905" lon="11.47534">
        <ele>393.91</ele>
        <time>2022-05-12T01:19:52.3650000+00:00</time>
      </trkpt>
      <trkpt lat="48.628785" lon="11.475342">
        <ele>394.77</ele>
        <time>2022-05-12T01:19:55.6000000+00:00</time>
      </trkpt>
      <trkpt lat="48.628682" lon="11.475317">
        <ele>395.44</ele>
        <time>2022-05-12T01:19:58.4120000+00:00</time>
      </trkpt>
      <trkpt lat="48.628623" lon="11.475275">
        <ele>395.72</ele>
        <time>2022-05-12T01:20:00.1690000+00:00</time>
      </trkpt>
      <trkpt lat="48.628597" lon="11.475348">
        <ele>396.05</ele>
        <time>2022-05-12T01:20:01.6470000+00:00</time>
      </trkpt>
      <trkpt lat="48.628623" lon="11.475275">
        <ele>395.72</ele>
        <time>2022-05-12T01:20:03.1240000+00:00</time>
      </trkpt>
      <trkpt lat="48.628549" lon="11.475224">
        <ele>395.99</ele>
        <time>2022-05-12T01:20:05.3160000+00:00</time>
      </trkpt>
      <trkpt lat="48.628428" lon="11.474934">
        <ele>395.77</ele>
        <time>2022-05-12T01:20:11.4260000+00:00</time>
      </trkpt>
      <trkpt lat="48.628172" lon="11.473997">
        <ele>394.55</ele>
        <time>2022-05-12T01:20:29.4890000+00:00</time>
      </trkpt>
      <trkpt lat="48.627987" lon="11.473522">
        <ele>394.28</ele>
        <time>2022-05-12T01:20:39.3120000+00:00</time>
      </trkpt>
      <trkpt lat="48.627709" lon="11.473197">
        <ele>394.51</ele>
        <time>2022-05-12T01:20:48.7820000+00:00</time>
      </trkpt>
      <trkpt lat="48.627437" lon="11.473005">
        <ele>394.6</ele>
        <time>2022-05-12T01:20:56.8730000+00:00</time>
      </trkpt>
      <trkpt lat="48.627293" lon="11.472936">
        <ele>394.61</ele>
        <time>2022-05-12T01:21:00.9440000+00:00</time>
      </trkpt>
      <trkpt lat="48.627124" lon="11.47292">
        <ele>394.78</ele>
        <time>2022-05-12T01:21:05.5080000+00:00</time>
      </trkpt>
      <trkpt lat="48.62698" lon="11.472934">
        <ele>394.98</ele>
        <time>2022-05-12T01:21:09.3980000+00:00</time>
      </trkpt>
      <trkpt lat="48.626809" lon="11.472983">
        <ele>395.57</ele>
        <time>2022-05-12T01:21:14.0890000+00:00</time>
      </trkpt>
      <trkpt lat="48.626825" lon="11.472875">
        <ele>395.2</ele>
        <time>2022-05-12T01:21:16.0610000+00:00</time>
      </trkpt>
      <trkpt lat="48.626782" lon="11.472859">
        <ele>395.25</ele>
        <time>2022-05-12T01:21:17.2550000+00:00</time>
      </trkpt>
      <trkpt lat="48.626825" lon="11.472875">
        <ele>395.2</ele>
        <time>2022-05-12T01:21:18.4490000+00:00</time>
      </trkpt>
      <trkpt lat="48.626809" lon="11.472983">
        <ele>395.57</ele>
        <time>2022-05-12T01:21:20.4200000+00:00</time>
      </trkpt>
      <trkpt lat="48.626297" lon="11.473211">
        <ele>397.88</ele>
        <time>2022-05-12T01:21:34.8070000+00:00</time>
      </trkpt>
      <trkpt lat="48.626086" lon="11.473108999999999">
        <ele>397.86</ele>
        <time>2022-05-12T01:21:40.7780000+00:00</time>
      </trkpt>
      <trkpt lat="48.625779" lon="11.472909">
        <ele>397.33</ele>
        <time>2022-05-12T01:21:49.7880000+00:00</time>
      </trkpt>
      <trkpt lat="48.625626" lon="11.472856">
        <ele>397.32</ele>
        <time>2022-05-12T01:21:54.0190000+00:00</time>
      </trkpt>
      <trkpt lat="48.62545" lon="11.472895">
        <ele>397.68</ele>
        <time>2022-05-12T01:21:58.8130000+00:00</time>
      </trkpt>
      <trkpt lat="48.625415" lon="11.472983">
        <ele>397.99</ele>
        <time>2022-05-12T01:22:00.6430000+00:00</time>
      </trkpt>
      <trkpt lat="48.625309" lon="11.473508">
        <ele>399.36</ele>
        <time>2022-05-12T01:22:10.4240000+00:00</time>
      </trkpt>
      <trkpt lat="48.625253" lon="11.473703">
        <ele>399.7</ele>
        <time>2022-05-12T01:22:14.2120000+00:00</time>
      </trkpt>
      <trkpt lat="48.625201" lon="11.473816">
        <ele>399.92</ele>
        <time>2022-05-12T01:22:16.6650000+00:00</time>
      </trkpt>
      <trkpt lat="48.624645" lon="11.474017">
        <ele>398.87</ele>
        <time>2022-05-12T01:22:32.0740000+00:00</time>
      </trkpt>
      <trkpt lat="48.624144" lon="11.474351">
        <ele>398.7</ele>
        <time>2022-05-12T01:22:46.8320000+00:00</time>
      </trkpt>
      <trkpt lat="48.623401" lon="11.474753">
        <ele>398.22</ele>
        <time>2022-05-12T01:23:08.1020000+00:00</time>
      </trkpt>
      <trkpt lat="48.622987" lon="11.474859">
        <ele>397.11</ele>
        <time>2022-05-12T01:23:19.4200000+00:00</time>
      </trkpt>
      <trkpt lat="48.622166" lon="11.475129">
        <ele>396.97</ele>
        <time>2022-05-12T01:23:42.0680000+00:00</time>
      </trkpt>
      <trkpt lat="48.621930999999996" lon="11.475302">
        <ele>397.53</ele>
        <time>2022-05-12T01:23:49.1120000+00:00</time>
      </trkpt>
      <trkpt lat="48.621811" lon="11.475425">
        <ele>397.96</ele>
        <time>2022-05-12T01:23:53.0190000+00:00</time>
      </trkpt>
      <trkpt lat="48.621681" lon="11.475598">
        <ele>398.7</ele>
        <time>2022-05-12T01:23:57.6870000+00:00</time>
      </trkpt>
      <trkpt lat="48.620988" lon="11.4767">
        <ele>400.84</ele>
        <time>2022-05-12T01:24:24.7880000+00:00</time>
      </trkpt>
      <trkpt lat="48.620683" lon="11.477108">
        <ele>400.34</ele>
        <time>2022-05-12T01:24:35.7630000+00:00</time>
      </trkpt>
      <trkpt lat="48.620492" lon="11.477221">
        <ele>400.06</ele>
        <time>2022-05-12T01:24:41.2910000+00:00</time>
      </trkpt>
      <trkpt lat="48.620299" lon="11.477268">
        <ele>399.61</ele>
        <time>2022-05-12T01:24:46.5610000+00:00</time>
      </trkpt>
      <trkpt lat="48.619619" lon="11.477322">
        <ele>399.97</ele>
        <time>2022-05-12T01:25:04.9160000+00:00</time>
      </trkpt>
      <trkpt lat="48.618761" lon="11.477516">
        <ele>400.43</ele>
        <time>2022-05-12T01:25:28.3000000+00:00</time>
      </trkpt>
      <trkpt lat="48.61752" lon="11.477601">
        <ele>402.55</ele>
        <time>2022-05-12T01:26:01.7860000+00:00</time>
      </trkpt>
      <trkpt lat="48.616371" lon="11.47773">
        <ele>408.07</ele>
        <time>2022-05-12T01:26:32.8430000+00:00</time>
      </trkpt>
      <trkpt lat="48.613931" lon="11.477955">
        <ele>439.95</ele>
        <time>2022-05-12T01:27:38.7360000+00:00</time>
      </trkpt>
      <trkpt lat="48.61212" lon="11.477584">
        <ele>433.51</ele>
        <time>2022-05-12T01:28:27.9980000+00:00</time>
      </trkpt>
      <trkpt lat="48.612115" lon="11.47758">
        <ele>433.51</ele>
        <time>2022-05-12T01:28:28.1510000+00:00</time>
      </trkpt>
      <trkpt lat="48.61212" lon="11.477584">
        <ele>433.51</ele>
        <time>2022-05-12T01:28:28.3030000+00:00</time>
      </trkpt>
      <trkpt lat="48.612055" lon="11.477571">
        <ele>433.53</ele>
        <time>2022-05-12T01:28:30.0710000+00:00</time>
      </trkpt>
      <trkpt lat="48.611429" lon="11.47901">
        <ele>432.65</ele>
        <time>2022-05-12T01:29:00.7700000+00:00</time>
      </trkpt>
      <trkpt lat="48.610886" lon="11.480878">
        <ele>437.27</ele>
        <time>2022-05-12T01:29:37.1370000+00:00</time>
      </trkpt>
      <trkpt lat="48.610419" lon="11.482617">
        <ele>446.01</ele>
        <time>2022-05-12T01:30:10.5880000+00:00</time>
      </trkpt>
      <trkpt lat="48.609879" lon="11.486744">
        <ele>451.94</ele>
        <time>2022-05-12T01:31:25.5680000+00:00</time>
      </trkpt>
      <trkpt lat="48.609398" lon="11.488572">
        <ele>458.37</ele>
        <time>2022-05-12T01:32:00.6320000+00:00</time>
      </trkpt>
      <trkpt lat="48.609288" lon="11.489693">
        <ele>460.66</ele>
        <time>2022-05-12T01:32:20.8300000+00:00</time>
      </trkpt>
      <trkpt lat="48.609698" lon="11.492253">
        <ele>462.35</ele>
        <time>2022-05-12T01:33:07.7760000+00:00</time>
      </trkpt>
      <trkpt lat="48.609558" lon="11.493959">
        <ele>468.41</ele>
        <time>2022-05-12T01:33:38.4140000+00:00</time>
      </trkpt>
      <trkpt lat="48.609215" lon="11.495287">
        <ele>471.57</ele>
        <time>2022-05-12T01:34:03.8240000+00:00</time>
      </trkpt>
      <trkpt lat="48.608765" lon="11.497232">
        <ele>475.44</ele>
        <time>2022-05-12T01:34:40.5500000+00:00</time>
      </trkpt>
      <trkpt lat="48.60856" lon="11.497851">
        <ele>474.02</ele>
        <time>2022-05-12T01:34:52.8890000+00:00</time>
      </trkpt>
      <trkpt lat="48.60854" lon="11.498274">
        <ele>472.03</ele>
        <time>2022-05-12T01:35:00.4480000+00:00</time>
      </trkpt>
      <trkpt lat="48.608628" lon="11.498875">
        <ele>469.85</ele>
        <time>2022-05-12T01:35:11.4190000+00:00</time>
      </trkpt>
      <trkpt lat="48.608802" lon="11.499369">
        <ele>470.47</ele>
        <time>2022-05-12T01:35:21.3940000+00:00</time>
      </trkpt>
      <trkpt lat="48.608511" lon="11.499437">
        <ele>468.58</ele>
        <time>2022-05-12T01:35:29.3320000+00:00</time>
      </trkpt>
      <trkpt lat="48.607603" lon="11.499403">
        <ele>465.29</ele>
        <time>2022-05-12T01:35:53.8140000+00:00</time>
      </trkpt>
      <trkpt lat="48.607403" lon="11.499605">
        <ele>467.06</ele>
        <time>2022-05-12T01:36:00.2970000+00:00</time>
      </trkpt>
      <trkpt lat="48.606938" lon="11.500211">
        <ele>472.03</ele>
        <time>2022-05-12T01:36:16.8430000+00:00</time>
      </trkpt>
      <trkpt lat="48.606303" lon="11.501162">
        <ele>480.57</ele>
        <time>2022-05-12T01:36:40.9320000+00:00</time>
      </trkpt>
      <trkpt lat="48.606127" lon="11.501611">
        <ele>480.95</ele>
        <time>2022-05-12T01:36:50.2360000+00:00</time>
      </trkpt>
      <trkpt lat="48.60599" lon="11.502061">
        <ele>478.83</ele>
        <time>2022-05-12T01:36:59.0660000+00:00</time>
      </trkpt>
      <trkpt lat="48.605852" lon="11.502361">
        <ele>476.85</ele>
        <time>2022-05-12T01:37:05.5800000+00:00</time>
      </trkpt>
      <trkpt lat="48.605603" lon="11.502709">
        <ele>473.46</ele>
        <time>2022-05-12T01:37:14.7190000+00:00</time>
      </trkpt>
      <trkpt lat="48.605427" lon="11.502911">
        <ele>470.96</ele>
        <time>2022-05-12T01:37:20.6740000+00:00</time>
      </trkpt>
      <trkpt lat="48.605258" lon="11.503218">
        <ele>468.77</ele>
        <time>2022-05-12T01:37:27.7940000+00:00</time>
      </trkpt>
      <trkpt lat="48.604801" lon="11.504657">
        <ele>465.53</ele>
        <time>2022-05-12T01:37:56.2480000+00:00</time>
      </trkpt>
      <trkpt lat="48.604692" lon="11.505105">
        <ele>468.53</ele>
        <time>2022-05-12T01:38:04.7570000+00:00</time>
      </trkpt>
      <trkpt lat="48.604009" lon="11.509303">
        <ele>453.59</ele>
        <time>2022-05-12T01:39:21.8150000+00:00</time>
      </trkpt>
      <trkpt lat="48.603994" lon="11.509525">
        <ele>453.16</ele>
        <time>2022-05-12T01:39:25.7930000+00:00</time>
      </trkpt>
      <trkpt lat="48.604012" lon="11.509726">
        <ele>452.74</ele>
        <time>2022-05-12T01:39:29.4080000+00:00</time>
      </trkpt>
      <trkpt lat="48.604151" lon="11.510309">
        <ele>450.63</ele>
        <time>2022-05-12T01:39:40.4550000+00:00</time>
      </trkpt>
      <trkpt lat="48.604209" lon="11.510623">
        <ele>450.22</ele>
        <time>2022-05-12T01:39:46.2660000+00:00</time>
      </trkpt>
      <trkpt lat="48.604229" lon="11.510888">
        <ele>450.5</ele>
        <time>2022-05-12T01:39:51.0200000+00:00</time>
      </trkpt>
      <trkpt lat="48.604207" lon="11.511928">
        <ele>453.88</ele>
        <time>2022-05-12T01:40:09.5670000+00:00</time>
      </trkpt>
      <trkpt lat="48.604177" lon="11.512067">
        <ele>454.51</ele>
        <time>2022-05-12T01:40:12.1730000+00:00</time>
      </trkpt>
      <trkpt lat="48.604051" lon="11.512407">
        <ele>455.7</ele>
        <time>2022-05-12T01:40:19.1200000+00:00</time>
      </trkpt>
      <trkpt lat="48.603824" lon="11.512879">
        <ele>456.79</ele>
        <time>2022-05-12T01:40:29.5230000+00:00</time>
      </trkpt>
      <trkpt lat="48.603635" lon="11.513178">
        <ele>456.06</ele>
        <time>2022-05-12T01:40:36.8960000+00:00</time>
      </trkpt>
      <trkpt lat="48.603112" lon="11.513859">
        <ele>451.54</ele>
        <time>2022-05-12T01:40:55.4990000+00:00</time>
      </trkpt>
      <trkpt lat="48.602156" lon="11.514903">
        <ele>442.33</ele>
        <time>2022-05-12T01:41:27.2860000+00:00</time>
      </trkpt>
      <trkpt lat="48.601665" lon="11.516423">
        <ele>439.84</ele>
        <time>2022-05-12T01:41:57.4400000+00:00</time>
      </trkpt>
      <trkpt lat="48.601566" lon="11.516878">
        <ele>439.28</ele>
        <time>2022-05-12T01:42:05.9780000+00:00</time>
      </trkpt>
      <trkpt lat="48.601559" lon="11.517265">
        <ele>438.92</ele>
        <time>2022-05-12T01:42:12.8790000+00:00</time>
      </trkpt>
      <trkpt lat="48.601606" lon="11.517699">
        <ele>438.04</ele>
        <time>2022-05-12T01:42:20.7180000+00:00</time>
      </trkpt>
      <trkpt lat="48.601793" lon="11.518554">
        <ele>436.57</ele>
        <time>2022-05-12T01:42:36.7710000+00:00</time>
      </trkpt>
      <trkpt lat="48.602048" lon="11.51954">
        <ele>435.27</ele>
        <time>2022-05-12T01:42:55.6430000+00:00</time>
      </trkpt>
      <trkpt lat="48.602253" lon="11.520136">
        <ele>435.39</ele>
        <time>2022-05-12T01:43:07.6180000+00:00</time>
      </trkpt>
      <trkpt lat="48.602399" lon="11.520682">
        <ele>434.16</ele>
        <time>2022-05-12T01:43:18.1160000+00:00</time>
      </trkpt>
      <trkpt lat="48.602434" lon="11.521165">
        <ele>432.68</ele>
        <time>2022-05-12T01:43:26.7770000+00:00</time>
      </trkpt>
      <trkpt lat="48.602438" lon="11.522187">
        <ele>427.41</ele>
        <time>2022-05-12T01:43:44.9940000+00:00</time>
      </trkpt>
      <trkpt lat="48.602777" lon="11.523591">
        <ele>421.63</ele>
        <time>2022-05-12T01:44:11.6370000+00:00</time>
      </trkpt>
      <trkpt lat="48.602794" lon="11.523914">
        <ele>421.03</ele>
        <time>2022-05-12T01:44:17.4130000+00:00</time>
      </trkpt>
      <trkpt lat="48.602775" lon="11.52438">
        <ele>420.71</ele>
        <time>2022-05-12T01:44:25.7350000+00:00</time>
      </trkpt>
      <trkpt lat="48.602693" lon="11.525253">
        <ele>422.3</ele>
        <time>2022-05-12T01:44:41.4520000+00:00</time>
      </trkpt>
      <trkpt lat="48.602574" lon="11.52616">
        <ele>422.08</ele>
        <time>2022-05-12T01:44:57.9350000+00:00</time>
      </trkpt>
      <trkpt lat="48.602607" lon="11.527059">
        <ele>425.45</ele>
        <time>2022-05-12T01:45:13.9840000+00:00</time>
      </trkpt>
      <trkpt lat="48.602461" lon="11.527678">
        <ele>427.17</ele>
        <time>2022-05-12T01:45:25.6980000+00:00</time>
      </trkpt>
      <trkpt lat="48.601922" lon="11.52909">
        <ele>424.59</ele>
        <time>2022-05-12T01:45:54.7600000+00:00</time>
      </trkpt>
      <trkpt lat="48.601605" lon="11.5305">
        <ele>425.85</ele>
        <time>2022-05-12T01:46:21.3060000+00:00</time>
      </trkpt>
      <trkpt lat="48.601536" lon="11.530646">
        <ele>425.32</ele>
        <time>2022-05-12T01:46:24.5050000+00:00</time>
      </trkpt>
      <trkpt lat="48.601457" lon="11.530712">
        <ele>424.49</ele>
        <time>2022-05-12T01:46:26.9380000+00:00</time>
      </trkpt>
      <trkpt lat="48.601372" lon="11.530725">
        <ele>423.53</ele>
        <time>2022-05-12T01:46:29.2410000+00:00</time>
      </trkpt>
      <trkpt lat="48.601039" lon="11.530596">
        <ele>421.81</ele>
        <time>2022-05-12T01:46:38.5070000+00:00</time>
      </trkpt>
      <trkpt lat="48.600923" lon="11.530597">
        <ele>422.09</ele>
        <time>2022-05-12T01:46:41.6340000+00:00</time>
      </trkpt>
      <trkpt lat="48.600848" lon="11.530705">
        <ele>422.01</ele>
        <time>2022-05-12T01:46:44.4250000+00:00</time>
      </trkpt>
      <trkpt lat="48.600635" lon="11.531639">
        <ele>420.46</ele>
        <time>2022-05-12T01:47:02.0370000+00:00</time>
      </trkpt>
      <trkpt lat="48.600535" lon="11.532226">
        <ele>419.7</ele>
        <time>2022-05-12T01:47:12.8420000+00:00</time>
      </trkpt>
      <trkpt lat="48.600187" lon="11.534585">
        <ele>417.87</ele>
        <time>2022-05-12T01:47:55.9270000+00:00</time>
      </trkpt>
      <trkpt lat="48.599995" lon="11.535449">
        <ele>417.46</ele>
        <time>2022-05-12T01:48:12.1750000+00:00</time>
      </trkpt>
      <trkpt lat="48.599701" lon="11.536419">
        <ele>413.69</ele>
        <time>2022-05-12T01:48:31.1950000+00:00</time>
      </trkpt>
      <trkpt lat="48.59954" lon="11.537172">
        <ele>412.48</ele>
        <time>2022-05-12T01:48:45.3020000+00:00</time>
      </trkpt>
      <trkpt lat="48.59953" lon="11.537947">
        <ele>413.28</ele>
        <time>2022-05-12T01:48:59.1200000+00:00</time>
      </trkpt>
      <trkpt lat="48.599556" lon="11.539742">
        <ele>411.24</ele>
        <time>2022-05-12T01:49:31.1260000+00:00</time>
      </trkpt>
      <trkpt lat="48.599556" lon="11.539742">
        <ele>411.24</ele>
        <time>2022-05-12T01:49:31.1260000+00:00</time>
      </trkpt>
      <trkpt lat="48.599577" lon="11.541516">
        <ele>414.13</ele>
        <time>2022-05-12T01:50:02.7540000+00:00</time>
      </trkpt>
      <trkpt lat="48.599693" lon="11.543211">
        <ele>415.72</ele>
        <time>2022-05-12T01:50:33.1310000+00:00</time>
      </trkpt>
      <trkpt lat="48.599862" lon="11.544032">
        <ele>415.52</ele>
        <time>2022-05-12T01:50:48.4580000+00:00</time>
      </trkpt>
      <trkpt lat="48.60014" lon="11.544898">
        <ele>416.21</ele>
        <time>2022-05-12T01:51:05.6180000+00:00</time>
      </trkpt>
      <trkpt lat="48.600273" lon="11.545052">
        <ele>416.29</ele>
        <time>2022-05-12T01:51:10.1340000+00:00</time>
      </trkpt>
      <trkpt lat="48.600595" lon="11.545291">
        <ele>417.61</ele>
        <time>2022-05-12T01:51:19.8030000+00:00</time>
      </trkpt>
      <trkpt lat="48.600765" lon="11.545513">
        <ele>418.11</ele>
        <time>2022-05-12T01:51:25.8570000+00:00</time>
      </trkpt>
      <trkpt lat="48.600832" lon="11.54574">
        <ele>417.69</ele>
        <time>2022-05-12T01:51:30.2880000+00:00</time>
      </trkpt>
      <trkpt lat="48.600854" lon="11.54602">
        <ele>416.82</ele>
        <time>2022-05-12T01:51:35.3150000+00:00</time>
      </trkpt>
      <trkpt lat="48.600844" lon="11.547563">
        <ele>415.84</ele>
        <time>2022-05-12T01:52:02.8210000+00:00</time>
      </trkpt>
      <trkpt lat="48.600742" lon="11.548485">
        <ele>414.84</ele>
        <time>2022-05-12T01:52:19.4850000+00:00</time>
      </trkpt>
      <trkpt lat="48.600735" lon="11.548956">
        <ele>413.5</ele>
        <time>2022-05-12T01:52:27.8830000+00:00</time>
      </trkpt>
      <trkpt lat="48.600745" lon="11.549285">
        <ele>412.4</ele>
        <time>2022-05-12T01:52:33.7530000+00:00</time>
      </trkpt>
      <trkpt lat="48.600816" lon="11.550094">
        <ele>412.28</ele>
        <time>2022-05-12T01:52:48.3010000+00:00</time>
      </trkpt>
      <trkpt lat="48.600846" lon="11.550965">
        <ele>412.86</ele>
        <time>2022-05-12T01:53:03.8480000+00:00</time>
      </trkpt>
      <trkpt lat="48.60093" lon="11.552279">
        <ele>412.32</ele>
        <time>2022-05-12T01:53:27.3800000+00:00</time>
      </trkpt>
      <trkpt lat="48.600994" lon="11.552853">
        <ele>411.8</ele>
        <time>2022-05-12T01:53:37.7560000+00:00</time>
      </trkpt>
      <trkpt lat="48.601115" lon="11.553478">
        <ele>412.63</ele>
        <time>2022-05-12T01:53:49.3650000+00:00</time>
      </trkpt>
      <trkpt lat="48.601183" lon="11.554489">
        <ele>415.09</ele>
        <time>2022-05-12T01:54:07.4790000+00:00</time>
      </trkpt>
      <trkpt lat="48.601263" lon="11.55639">
        <ele>410.25</ele>
        <time>2022-05-12T01:54:41.4340000+00:00</time>
      </trkpt>
      <trkpt lat="48.601269" lon="11.557039">
        <ele>410.62</ele>
        <time>2022-05-12T01:54:53.0040000+00:00</time>
      </trkpt>
      <trkpt lat="48.601168" lon="11.558961">
        <ele>410.02</ele>
        <time>2022-05-12T01:55:27.3730000+00:00</time>
      </trkpt>
      <trkpt lat="48.601152" lon="11.559737">
        <ele>408.9</ele>
        <time>2022-05-12T01:55:41.2120000+00:00</time>
      </trkpt>
      <trkpt lat="48.601171" lon="11.56067">
        <ele>404.57</ele>
        <time>2022-05-12T01:55:57.8510000+00:00</time>
      </trkpt>
      <trkpt lat="48.601218" lon="11.560718">
        <ele>404.56</ele>
        <time>2022-05-12T01:55:59.3800000+00:00</time>
      </trkpt>
      <trkpt lat="48.60128" lon="11.560585">
        <ele>405.5</ele>
        <time>2022-05-12T01:56:02.2800000+00:00</time>
      </trkpt>
      <trkpt lat="48.601218" lon="11.560718">
        <ele>404.56</ele>
        <time>2022-05-12T01:56:05.1810000+00:00</time>
      </trkpt>
      <trkpt lat="48.602414" lon="11.561986">
        <ele>406.27</ele>
        <time>2022-05-12T01:56:44.5530000+00:00</time>
      </trkpt>
      <trkpt lat="48.604454" lon="11.563876">
        <ele>400.82</ele>
        <time>2022-05-12T01:57:49.0410000+00:00</time>
      </trkpt>
      <trkpt lat="48.604803" lon="11.564101">
        <ele>401.07</ele>
        <time>2022-05-12T01:57:59.2680000+00:00</time>
      </trkpt>
      <trkpt lat="48.605146" lon="11.564284">
        <ele>401.31</ele>
        <time>2022-05-12T01:58:09.0720000+00:00</time>
      </trkpt>
      <trkpt lat="48.60565" lon="11.564515">
        <ele>402.6</ele>
        <time>2022-05-12T01:58:23.2680000+00:00</time>
      </trkpt>
      <trkpt lat="48.606177" lon="11.564852">
        <ele>403.55</ele>
        <time>2022-05-12T01:58:38.6910000+00:00</time>
      </trkpt>
      <trkpt lat="48.606981" lon="11.565445">
        <ele>401.59</ele>
        <time>2022-05-12T01:59:02.8030000+00:00</time>
      </trkpt>
      <trkpt lat="48.607077" lon="11.56549">
        <ele>401.32</ele>
        <time>2022-05-12T01:59:05.5130000+00:00</time>
      </trkpt>
      <trkpt lat="48.60736" lon="11.565551">
        <ele>400.85</ele>
        <time>2022-05-12T01:59:13.2180000+00:00</time>
      </trkpt>
      <trkpt lat="48.607424" lon="11.565604">
        <ele>400.62</ele>
        <time>2022-05-12T01:59:15.1850000+00:00</time>
      </trkpt>
      <trkpt lat="48.607573" lon="11.565389">
        <ele>401.22</ele>
        <time>2022-05-12T01:59:20.7360000+00:00</time>
      </trkpt>
      <trkpt lat="48.608289" lon="11.564775">
        <ele>404.6</ele>
        <time>2022-05-12T01:59:42.9230000+00:00</time>
      </trkpt>
      <trkpt lat="48.608419" lon="11.564681">
        <ele>404.85</ele>
        <time>2022-05-12T01:59:46.8070000+00:00</time>
      </trkpt>
      <trkpt lat="48.608602" lon="11.564614">
        <ele>404.69</ele>
        <time>2022-05-12T01:59:51.8820000+00:00</time>
      </trkpt>
      <trkpt lat="48.608856" lon="11.564624">
        <ele>404.01</ele>
        <time>2022-05-12T01:59:58.7310000+00:00</time>
      </trkpt>
      <trkpt lat="48.609254" lon="11.564805">
        <ele>402.39</ele>
        <time>2022-05-12T02:00:09.9340000+00:00</time>
      </trkpt>
      <trkpt lat="48.60962" lon="11.565023">
        <ele>401.13</ele>
        <time>2022-05-12T02:00:20.5370000+00:00</time>
      </trkpt>
      <trkpt lat="48.609905" lon="11.565117">
        <ele>400.53</ele>
        <time>2022-05-12T02:00:28.4000000+00:00</time>
      </trkpt>
      <trkpt lat="48.610066" lon="11.565151">
        <ele>400.25</ele>
        <time>2022-05-12T02:00:32.7820000+00:00</time>
      </trkpt>
      <trkpt lat="48.610368" lon="11.565108">
        <ele>400.24</ele>
        <time>2022-05-12T02:00:40.9590000+00:00</time>
      </trkpt>
      <trkpt lat="48.610323" lon="11.56549">
        <ele>398.7</ele>
        <time>2022-05-12T02:00:47.8740000+00:00</time>
      </trkpt>
      <trkpt lat="48.610247" lon="11.565471">
        <ele>398.83</ele>
        <time>2022-05-12T02:00:49.9500000+00:00</time>
      </trkpt>
      <trkpt lat="48.610323" lon="11.56549">
        <ele>398.7</ele>
        <time>2022-05-12T02:00:52.0270000+00:00</time>
      </trkpt>
      <trkpt lat="48.610296" lon="11.565723">
        <ele>398.17</ele>
        <time>2022-05-12T02:00:56.2430000+00:00</time>
      </trkpt>
      <trkpt lat="48.610147" lon="11.568413">
        <ele>396.21</ele>
        <time>2022-05-12T02:01:44.3520000+00:00</time>
      </trkpt>
      <trkpt lat="48.610183" lon="11.568518">
        <ele>396.17</ele>
        <time>2022-05-12T02:01:46.4600000+00:00</time>
      </trkpt>
      <trkpt lat="48.610811" lon="11.569488">
        <ele>395.42</ele>
        <time>2022-05-12T02:02:10.6560000+00:00</time>
      </trkpt>
      <trkpt lat="48.610848" lon="11.569743">
        <ele>395.11</ele>
        <time>2022-05-12T02:02:15.3090000+00:00</time>
      </trkpt>
      <trkpt lat="48.610621" lon="11.569826">
        <ele>395.28</ele>
        <time>2022-05-12T02:02:21.6040000+00:00</time>
      </trkpt>
      <trkpt lat="48.609621" lon="11.570336">
        <ele>395.07</ele>
        <time>2022-05-12T02:02:50.0500000+00:00</time>
      </trkpt>
      <trkpt lat="48.609611" lon="11.571104">
        <ele>394.23</ele>
        <time>2022-05-12T02:03:03.7410000+00:00</time>
      </trkpt>
      <trkpt lat="48.609481" lon="11.571417">
        <ele>394.54</ele>
        <time>2022-05-12T02:03:10.3280000+00:00</time>
      </trkpt>
      <trkpt lat="48.609356" lon="11.57147">
        <ele>394.67</ele>
        <time>2022-05-12T02:03:13.8280000+00:00</time>
      </trkpt>
      <trkpt lat="48.609259" lon="11.571609">
        <ele>395</ele>
        <time>2022-05-12T02:03:17.4290000+00:00</time>
      </trkpt>
      <trkpt lat="48.609078" lon="11.571987">
        <ele>395.91</ele>
        <time>2022-05-12T02:03:25.7480000+00:00</time>
      </trkpt>
      <trkpt lat="48.608851" lon="11.572377">
        <ele>396.42</ele>
        <time>2022-05-12T02:03:35.0080000+00:00</time>
      </trkpt>
      <trkpt lat="48.608682" lon="11.572466">
        <ele>396.53</ele>
        <time>2022-05-12T02:03:39.8320000+00:00</time>
      </trkpt>
      <trkpt lat="48.608851" lon="11.572377">
        <ele>396.42</ele>
        <time>2022-05-12T02:03:44.6550000+00:00</time>
      </trkpt>
      <trkpt lat="48.609078" lon="11.571987">
        <ele>395.91</ele>
        <time>2022-05-12T02:03:53.9160000+00:00</time>
      </trkpt>
      <trkpt lat="48.609259" lon="11.571609">
        <ele>395</ele>
        <time>2022-05-12T02:04:02.2340000+00:00</time>
      </trkpt>
      <trkpt lat="48.609356" lon="11.57147">
        <ele>394.67</ele>
        <time>2022-05-12T02:04:05.8360000+00:00</time>
      </trkpt>
      <trkpt lat="48.609481" lon="11.571417">
        <ele>394.54</ele>
        <time>2022-05-12T02:04:09.3350000+00:00</time>
      </trkpt>
      <trkpt lat="48.608702" lon="11.572942">
        <ele>396.9</ele>
        <time>2022-05-12T02:04:43.6810000+00:00</time>
      </trkpt>
      <trkpt lat="48.608633" lon="11.57303">
        <ele>396.85</ele>
        <time>2022-05-12T02:04:46.1140000+00:00</time>
      </trkpt>
      <trkpt lat="48.608414" lon="11.57312">
        <ele>397.27</ele>
        <time>2022-05-12T02:04:52.2310000+00:00</time>
      </trkpt>
      <trkpt lat="48.607537" lon="11.573079">
        <ele>398.57</ele>
        <time>2022-05-12T02:05:15.8830000+00:00</time>
      </trkpt>
      <trkpt lat="48.607429" lon="11.573053">
        <ele>398.51</ele>
        <time>2022-05-12T02:05:18.8300000+00:00</time>
      </trkpt>
      <trkpt lat="48.607076" lon="11.57303">
        <ele>398.27</ele>
        <time>2022-05-12T02:05:28.3550000+00:00</time>
      </trkpt>
      <trkpt lat="48.606792" lon="11.572879">
        <ele>398.03</ele>
        <time>2022-05-12T02:05:36.4690000+00:00</time>
      </trkpt>
      <trkpt lat="48.606631" lon="11.572822">
        <ele>397.95</ele>
        <time>2022-05-12T02:05:40.9260000+00:00</time>
      </trkpt>
      <trkpt lat="48.606351" lon="11.572597">
        <ele>397.86</ele>
        <time>2022-05-12T02:05:49.4730000+00:00</time>
      </trkpt>
      <trkpt lat="48.606217" lon="11.572558">
        <ele>397.95</ele>
        <time>2022-05-12T02:05:53.1510000+00:00</time>
      </trkpt>
      <trkpt lat="48.605827" lon="11.572358">
        <ele>398.72</ele>
        <time>2022-05-12T02:06:04.2520000+00:00</time>
      </trkpt>
      <trkpt lat="48.605673" lon="11.572222">
        <ele>398.87</ele>
        <time>2022-05-12T02:06:09.0590000+00:00</time>
      </trkpt>
      <trkpt lat="48.605365" lon="11.572089">
        <ele>399.11</ele>
        <time>2022-05-12T02:06:17.6930000+00:00</time>
      </trkpt>
      <trkpt lat="48.605048" lon="11.572753">
        <ele>400.71</ele>
        <time>2022-05-12T02:06:32.2910000+00:00</time>
      </trkpt>
      <trkpt lat="48.604925" lon="11.573089">
        <ele>401.14</ele>
        <time>2022-05-12T02:06:39.1360000+00:00</time>
      </trkpt>
      <trkpt lat="48.604804" lon="11.573572">
        <ele>401.54</ele>
        <time>2022-05-12T02:06:48.3420000+00:00</time>
      </trkpt>
      <trkpt lat="48.604755" lon="11.573862">
        <ele>401.77</ele>
        <time>2022-05-12T02:06:53.6770000+00:00</time>
      </trkpt>
      <trkpt lat="48.604722" lon="11.574208">
        <ele>402.01</ele>
        <time>2022-05-12T02:06:59.9080000+00:00</time>
      </trkpt>
      <trkpt lat="48.604732" lon="11.574912">
        <ele>402.15</ele>
        <time>2022-05-12T02:07:12.4590000+00:00</time>
      </trkpt>
      <trkpt lat="48.604622" lon="11.576624">
        <ele>402.74</ele>
        <time>2022-05-12T02:07:43.1180000+00:00</time>
      </trkpt>
      <trkpt lat="48.604289" lon="11.577542">
        <ele>403.62</ele>
        <time>2022-05-12T02:08:01.7810000+00:00</time>
      </trkpt>
      <trkpt lat="48.603889" lon="11.578226">
        <ele>404.06</ele>
        <time>2022-05-12T02:08:18.0570000+00:00</time>
      </trkpt>
      <trkpt lat="48.603727" lon="11.579025">
        <ele>406.07</ele>
        <time>2022-05-12T02:08:32.9530000+00:00</time>
      </trkpt>
      <trkpt lat="48.603254" lon="11.582008">
        <ele>420.43</ele>
        <time>2022-05-12T02:09:27.6320000+00:00</time>
      </trkpt>
      <trkpt lat="48.603247" lon="11.582274">
        <ele>421.28</ele>
        <time>2022-05-12T02:09:32.3770000+00:00</time>
      </trkpt>
      <trkpt lat="48.6033" lon="11.583118">
        <ele>423.24</ele>
        <time>2022-05-12T02:09:47.4880000+00:00</time>
      </trkpt>
      <trkpt lat="48.603428" lon="11.584146">
        <ele>423.69</ele>
        <time>2022-05-12T02:10:06.1340000+00:00</time>
      </trkpt>
      <trkpt lat="48.603448" lon="11.584519">
        <ele>424.04</ele>
        <time>2022-05-12T02:10:12.8050000+00:00</time>
      </trkpt>
      <trkpt lat="48.603107" lon="11.586441">
        <ele>427.03</ele>
        <time>2022-05-12T02:10:48.2750000+00:00</time>
      </trkpt>
      <trkpt lat="48.603004" lon="11.586909">
        <ele>427.08</ele>
        <time>2022-05-12T02:10:57.0670000+00:00</time>
      </trkpt>
      <trkpt lat="48.602946" lon="11.587385">
        <ele>427.37</ele>
        <time>2022-05-12T02:11:05.6950000+00:00</time>
      </trkpt>
      <trkpt lat="48.602787" lon="11.589148">
        <ele>427.67</ele>
        <time>2022-05-12T02:11:37.4110000+00:00</time>
      </trkpt>
      <trkpt lat="48.602701" lon="11.58988">
        <ele>427.33</ele>
        <time>2022-05-12T02:11:50.6630000+00:00</time>
      </trkpt>
      <trkpt lat="48.602347" lon="11.59175">
        <ele>429.31</ele>
        <time>2022-05-12T02:12:25.3350000+00:00</time>
      </trkpt>
      <trkpt lat="48.602184" lon="11.592439">
        <ele>430.95</ele>
        <time>2022-05-12T02:12:38.3790000+00:00</time>
      </trkpt>
      <trkpt lat="48.602042" lon="11.593139">
        <ele>432.26</ele>
        <time>2022-05-12T02:12:51.4300000+00:00</time>
      </trkpt>
      <trkpt lat="48.602048" lon="11.593394">
        <ele>431.94</ele>
        <time>2022-05-12T02:12:55.9790000+00:00</time>
      </trkpt>
      <trkpt lat="48.602066" lon="11.593526">
        <ele>431.66</ele>
        <time>2022-05-12T02:12:58.3810000+00:00</time>
      </trkpt>
      <trkpt lat="48.602018" lon="11.593541">
        <ele>432.01</ele>
        <time>2022-05-12T02:12:59.7020000+00:00</time>
      </trkpt>
      <trkpt lat="48.602066" lon="11.593526">
        <ele>431.66</ele>
        <time>2022-05-12T02:13:01.0230000+00:00</time>
      </trkpt>
      <trkpt lat="48.60214" lon="11.593742">
        <ele>430.94</ele>
        <time>2022-05-12T02:13:05.3600000+00:00</time>
      </trkpt>
      <trkpt lat="48.602786" lon="11.594545">
        <ele>428.58</ele>
        <time>2022-05-12T02:13:27.9010000+00:00</time>
      </trkpt>
      <trkpt lat="48.603122" lon="11.594908">
        <ele>432.38</ele>
        <time>2022-05-12T02:13:39.0320000+00:00</time>
      </trkpt>
      <trkpt lat="48.603353" lon="11.59511">
        <ele>433.97</ele>
        <time>2022-05-12T02:13:46.2240000+00:00</time>
      </trkpt>
      <trkpt lat="48.60384" lon="11.595608">
        <ele>441</ele>
        <time>2022-05-12T02:14:02.0710000+00:00</time>
      </trkpt>
      <trkpt lat="48.604625" lon="11.596483">
        <ele>456.36</ele>
        <time>2022-05-12T02:14:28.3580000+00:00</time>
      </trkpt>
      <trkpt lat="48.604884" lon="11.59683">
        <ele>459.49</ele>
        <time>2022-05-12T02:14:37.6850000+00:00</time>
      </trkpt>
      <trkpt lat="48.605031" lon="11.597207">
        <ele>461.63</ele>
        <time>2022-05-12T02:14:45.4860000+00:00</time>
      </trkpt>
      <trkpt lat="48.605164" lon="11.597837">
        <ele>463.8</ele>
        <time>2022-05-12T02:14:57.2740000+00:00</time>
      </trkpt>
      <trkpt lat="48.605475" lon="11.598659">
        <ele>464.28</ele>
        <time>2022-05-12T02:15:14.1540000+00:00</time>
      </trkpt>
      <trkpt lat="48.605879" lon="11.599271">
        <ele>465.76</ele>
        <time>2022-05-12T02:15:29.5670000+00:00</time>
      </trkpt>
      <trkpt lat="48.606137" lon="11.599526">
        <ele>464.12</ele>
        <time>2022-05-12T02:15:37.8750000+00:00</time>
      </trkpt>
      <trkpt lat="48.606392" lon="11.599664">
        <ele>464.07</ele>
        <time>2022-05-12T02:15:45.1760000+00:00</time>
      </trkpt>
      <trkpt lat="48.606341" lon="11.600525">
        <ele>458.91</ele>
        <time>2022-05-12T02:16:00.5830000+00:00</time>
      </trkpt>
      <trkpt lat="48.606236" lon="11.600566">
        <ele>458.4</ele>
        <time>2022-05-12T02:16:03.5060000+00:00</time>
      </trkpt>
      <trkpt lat="48.606123" lon="11.601031">
        <ele>456.79</ele>
        <time>2022-05-12T02:16:12.3360000+00:00</time>
      </trkpt>
      <trkpt lat="48.605729" lon="11.601763">
        <ele>454.21</ele>
        <time>2022-05-12T02:16:29.1600000+00:00</time>
      </trkpt>
      <trkpt lat="48.605408" lon="11.602436">
        <ele>452.05</ele>
        <time>2022-05-12T02:16:43.9500000+00:00</time>
      </trkpt>
      <trkpt lat="48.605193" lon="11.602983">
        <ele>449.9</ele>
        <time>2022-05-12T02:16:55.2920000+00:00</time>
      </trkpt>
      <trkpt lat="48.605003" lon="11.603212">
        <ele>446.52</ele>
        <time>2022-05-12T02:17:01.8410000+00:00</time>
      </trkpt>
      <trkpt lat="48.604977" lon="11.603313">
        <ele>445.79</ele>
        <time>2022-05-12T02:17:03.7730000+00:00</time>
      </trkpt>
      <trkpt lat="48.604859" lon="11.605086">
        <ele>438.54</ele>
        <time>2022-05-12T02:17:35.5350000+00:00</time>
      </trkpt>
      <trkpt lat="48.604865" lon="11.605575">
        <ele>436.77</ele>
        <time>2022-05-12T02:17:44.2530000+00:00</time>
      </trkpt>
      <trkpt lat="48.605057" lon="11.607263">
        <ele>431.42</ele>
        <time>2022-05-12T02:18:14.7820000+00:00</time>
      </trkpt>
      <trkpt lat="48.605067" lon="11.607514">
        <ele>429.96</ele>
        <time>2022-05-12T02:18:19.2640000+00:00</time>
      </trkpt>
      <trkpt lat="48.605053" lon="11.607772">
        <ele>428.34</ele>
        <time>2022-05-12T02:18:23.8780000+00:00</time>
      </trkpt>
      <trkpt lat="48.604884" lon="11.609398">
        <ele>419.5</ele>
        <time>2022-05-12T02:18:53.2150000+00:00</time>
      </trkpt>
      <trkpt lat="48.604847" lon="11.609921">
        <ele>416.86</ele>
        <time>2022-05-12T02:19:02.5910000+00:00</time>
      </trkpt>
      <trkpt lat="48.604857" lon="11.610266">
        <ele>415.27</ele>
        <time>2022-05-12T02:19:08.7460000+00:00</time>
      </trkpt>
      <trkpt lat="48.605132" lon="11.611301">
        <ele>414.32</ele>
        <time>2022-05-12T02:19:28.6280000+00:00</time>
      </trkpt>
      <trkpt lat="48.605183" lon="11.611399">
        <ele>414.25</ele>
        <time>2022-05-12T02:19:30.8500000+00:00</time>
      </trkpt>
      <trkpt lat="48.604969" lon="11.611654">
        <ele>416.61</ele>
        <time>2022-05-12T02:19:38.1940000+00:00</time>
      </trkpt>
      <trkpt lat="48.605183" lon="11.611399">
        <ele>414.25</ele>
        <time>2022-05-12T02:19:45.5380000+00:00</time>
      </trkpt>
      <trkpt lat="48.605557" lon="11.612126">
        <ele>413.7</ele>
        <time>2022-05-12T02:20:01.9560000+00:00</time>
      </trkpt>
      <trkpt lat="48.60614" lon="11.613191">
        <ele>412.59</ele>
        <time>2022-05-12T02:20:26.5990000+00:00</time>
      </trkpt>
      <trkpt lat="48.606966" lon="11.614641">
        <ele>408.77</ele>
        <time>2022-05-12T02:21:00.7120000+00:00</time>
      </trkpt>
      <trkpt lat="48.606537" lon="11.615677">
        <ele>408.3</ele>
        <time>2022-05-12T02:21:22.4990000+00:00</time>
      </trkpt>
      <trkpt lat="48.606151" lon="11.616475">
        <ele>406.9</ele>
        <time>2022-05-12T02:21:40.1220000+00:00</time>
      </trkpt>
      <trkpt lat="48.605745" lon="11.61719">
        <ele>407.26</ele>
        <time>2022-05-12T02:21:56.9200000+00:00</time>
      </trkpt>
      <trkpt lat="48.605122" lon="11.618012">
        <ele>407.63</ele>
        <time>2022-05-12T02:22:19.2060000+00:00</time>
      </trkpt>
      <trkpt lat="48.605182" lon="11.61817">
        <ele>407.38</ele>
        <time>2022-05-12T02:22:22.4540000+00:00</time>
      </trkpt>
      <trkpt lat="48.604876" lon="11.618477">
        <ele>407.77</ele>
        <time>2022-05-12T02:22:32.3520000+00:00</time>
      </trkpt>
      <trkpt lat="48.604689" lon="11.618746">
        <ele>407.79</ele>
        <time>2022-05-12T02:22:39.3090000+00:00</time>
      </trkpt>
      <trkpt lat="48.604421" lon="11.61925">
        <ele>408.48</ele>
        <time>2022-05-12T02:22:50.8370000+00:00</time>
      </trkpt>
      <trkpt lat="48.603857" lon="11.620417">
        <ele>410.24</ele>
        <time>2022-05-12T02:23:16.6010000+00:00</time>
      </trkpt>
      <trkpt lat="48.60361" lon="11.621038">
        <ele>410.26</ele>
        <time>2022-05-12T02:23:29.5180000+00:00</time>
      </trkpt>
      <trkpt lat="48.603509" lon="11.621232">
        <ele>410.23</ele>
        <time>2022-05-12T02:23:33.9190000+00:00</time>
      </trkpt>
      <trkpt lat="48.603233" lon="11.621582">
        <ele>409.98</ele>
        <time>2022-05-12T02:23:43.6290000+00:00</time>
      </trkpt>
      <trkpt lat="48.602773" lon="11.621943">
        <ele>409.35</ele>
        <time>2022-05-12T02:23:57.5980000+00:00</time>
      </trkpt>
      <trkpt lat="48.602684" lon="11.62205">
        <ele>409.43</ele>
        <time>2022-05-12T02:24:00.6630000+00:00</time>
      </trkpt>
      <trkpt lat="48.602363" lon="11.622594">
        <ele>409.54</ele>
        <time>2022-05-12T02:24:13.6590000+00:00</time>
      </trkpt>
      <trkpt lat="48.602325" lon="11.622548">
        <ele>409.73</ele>
        <time>2022-05-12T02:24:14.9710000+00:00</time>
      </trkpt>
      <trkpt lat="48.602363" lon="11.622594">
        <ele>409.54</ele>
        <time>2022-05-12T02:24:16.2830000+00:00</time>
      </trkpt>
      <trkpt lat="48.6022" lon="11.622843">
        <ele>409.54</ele>
        <time>2022-05-12T02:24:22.5280000+00:00</time>
      </trkpt>
      <trkpt lat="48.601982" lon="11.623121">
        <ele>410.03</ele>
        <time>2022-05-12T02:24:30.2150000+00:00</time>
      </trkpt>
      <trkpt lat="48.601834" lon="11.623385">
        <ele>410.26</ele>
        <time>2022-05-12T02:24:36.3850000+00:00</time>
      </trkpt>
      <trkpt lat="48.601772" lon="11.623632">
        <ele>410.28</ele>
        <time>2022-05-12T02:24:41.0940000+00:00</time>
      </trkpt>
      <trkpt lat="48.601773" lon="11.623743">
        <ele>410.24</ele>
        <time>2022-05-12T02:24:43.0730000+00:00</time>
      </trkpt>
      <trkpt lat="48.601795" lon="11.623805">
        <ele>410.2</ele>
        <time>2022-05-12T02:24:44.3270000+00:00</time>
      </trkpt>
      <trkpt lat="48.601737" lon="11.623848">
        <ele>410.24</ele>
        <time>2022-05-12T02:24:46.0680000+00:00</time>
      </trkpt>
      <trkpt lat="48.601795" lon="11.623805">
        <ele>410.2</ele>
        <time>2022-05-12T02:24:47.8090000+00:00</time>
      </trkpt>
      <trkpt lat="48.602279" lon="11.624746">
        <ele>410.99</ele>
        <time>2022-05-12T02:25:09.0590000+00:00</time>
      </trkpt>
      <trkpt lat="48.602434" lon="11.625085">
        <ele>411.36</ele>
        <time>2022-05-12T02:25:16.4060000+00:00</time>
      </trkpt>
      <trkpt lat="48.602669" lon="11.625669">
        <ele>411.97</ele>
        <time>2022-05-12T02:25:28.5910000+00:00</time>
      </trkpt>
      <trkpt lat="48.603001" lon="11.626338">
        <ele>414.31</ele>
        <time>2022-05-12T02:25:43.5010000+00:00</time>
      </trkpt>
      <trkpt lat="48.603037" lon="11.626444">
        <ele>414.82</ele>
        <time>2022-05-12T02:25:45.6250000+00:00</time>
      </trkpt>
      <trkpt lat="48.603029" lon="11.626533">
        <ele>415.11</ele>
        <time>2022-05-12T02:25:47.2260000+00:00</time>
      </trkpt>
      <trkpt lat="48.602997" lon="11.626643">
        <ele>415.39</ele>
        <time>2022-05-12T02:25:49.3680000+00:00</time>
      </trkpt>
      <trkpt lat="48.602863" lon="11.626977">
        <ele>416.11</ele>
        <time>2022-05-12T02:25:56.3310000+00:00</time>
      </trkpt>
      <trkpt lat="48.602871" lon="11.627117">
        <ele>416.8</ele>
        <time>2022-05-12T02:25:58.8360000+00:00</time>
      </trkpt>
      <trkpt lat="48.602971" lon="11.627341">
        <ele>418.1</ele>
        <time>2022-05-12T02:26:03.6540000+00:00</time>
      </trkpt>
      <trkpt lat="48.602947" lon="11.627366">
        <ele>418.15</ele>
        <time>2022-05-12T02:26:04.4400000+00:00</time>
      </trkpt>
      <trkpt lat="48.602944" lon="11.627346">
        <ele>418.06</ele>
        <time>2022-05-12T02:26:04.8050000+00:00</time>
      </trkpt>
      <trkpt lat="48.602947" lon="11.627366">
        <ele>418.15</ele>
        <time>2022-05-12T02:26:05.1700000+00:00</time>
      </trkpt>
      <trkpt lat="48.603221" lon="11.62706">
        <ele>417.71</ele>
        <time>2022-05-12T02:26:14.3520000+00:00</time>
      </trkpt>
      <trkpt lat="48.603384" lon="11.626921">
        <ele>417.79</ele>
        <time>2022-05-12T02:26:19.3960000+00:00</time>
      </trkpt>
      <trkpt lat="48.603435" lon="11.626911">
        <ele>417.94</ele>
        <time>2022-05-12T02:26:20.7820000+00:00</time>
      </trkpt>
      <trkpt lat="48.603477" lon="11.626953">
        <ele>418.24</ele>
        <time>2022-05-12T02:26:22.1390000+00:00</time>
      </trkpt>
      <trkpt lat="48.603752" lon="11.627635">
        <ele>420.47</ele>
        <time>2022-05-12T02:26:36.3770000+00:00</time>
      </trkpt>
      <trkpt lat="48.603786" lon="11.627673">
        <ele>420.52</ele>
        <time>2022-05-12T02:26:37.5170000+00:00</time>
      </trkpt>
      <trkpt lat="48.603822" lon="11.627675">
        <ele>420.49</ele>
        <time>2022-05-12T02:26:38.4880000+00:00</time>
      </trkpt>
      <trkpt lat="48.603836" lon="11.627775">
        <ele>420.71</ele>
        <time>2022-05-12T02:26:40.3100000+00:00</time>
      </trkpt>
      <trkpt lat="48.603823" lon="11.627776">
        <ele>420.73</ele>
        <time>2022-05-12T02:26:40.6610000+00:00</time>
      </trkpt>
      <trkpt lat="48.603836" lon="11.627775">
        <ele>420.71</ele>
        <time>2022-05-12T02:26:41.0110000+00:00</time>
      </trkpt>
      <trkpt lat="48.603822" lon="11.627675">
        <ele>420.49</ele>
        <time>2022-05-12T02:26:42.8330000+00:00</time>
      </trkpt>
      <trkpt lat="48.604323" lon="11.627359">
        <ele>419.12</ele>
        <time>2022-05-12T02:26:57.4650000+00:00</time>
      </trkpt>
      <trkpt lat="48.605391" lon="11.626629">
        <ele>418.36</ele>
        <time>2022-05-12T02:27:29.0580000+00:00</time>
      </trkpt>
      <trkpt lat="48.605516" lon="11.626526">
        <ele>418.47</ele>
        <time>2022-05-12T02:27:32.8950000+00:00</time>
      </trkpt>
      <trkpt lat="48.606318" lon="11.625701">
        <ele>417.43</ele>
        <time>2022-05-12T02:27:59.0400000+00:00</time>
      </trkpt>
      <trkpt lat="48.606647" lon="11.62508">
        <ele>416.19</ele>
        <time>2022-05-12T02:28:13.2230000+00:00</time>
      </trkpt>
      <trkpt lat="48.607026" lon="11.624063">
        <ele>414.52</ele>
        <time>2022-05-12T02:28:34.0300000+00:00</time>
      </trkpt>
      <trkpt lat="48.607132" lon="11.623923">
        <ele>414.11</ele>
        <time>2022-05-12T02:28:37.8240000+00:00</time>
      </trkpt>
      <trkpt lat="48.607239" lon="11.623837">
        <ele>413.91</ele>
        <time>2022-05-12T02:28:41.0900000+00:00</time>
      </trkpt>
      <trkpt lat="48.607481" lon="11.623806">
        <ele>414.05</ele>
        <time>2022-05-12T02:28:47.6360000+00:00</time>
      </trkpt>
      <trkpt lat="48.607915" lon="11.623803">
        <ele>414.12</ele>
        <time>2022-05-12T02:28:59.3350000+00:00</time>
      </trkpt>
      <trkpt lat="48.608139" lon="11.623687">
        <ele>413.31</ele>
        <time>2022-05-12T02:29:05.7170000+00:00</time>
      </trkpt>
      <trkpt lat="48.608299" lon="11.623552">
        <ele>412.87</ele>
        <time>2022-05-12T02:29:10.6560000+00:00</time>
      </trkpt>
      <trkpt lat="48.60884" lon="11.623013">
        <ele>412.6</ele>
        <time>2022-05-12T02:29:28.1190000+00:00</time>
      </trkpt>
      <trkpt lat="48.610091" lon="11.622061">
        <ele>414.16</ele>
        <time>2022-05-12T02:30:05.8680000+00:00</time>
      </trkpt>
      <trkpt lat="48.6107" lon="11.62157">
        <ele>414.46</ele>
        <time>2022-05-12T02:30:24.4700000+00:00</time>
      </trkpt>
      <trkpt lat="48.610856" lon="11.621328">
        <ele>413.91</ele>
        <time>2022-05-12T02:30:30.4940000+00:00</time>
      </trkpt>
      <trkpt lat="48.610599" lon="11.621034">
        <ele>413.3</ele>
        <time>2022-05-12T02:30:39.1800000+00:00</time>
      </trkpt>
      <trkpt lat="48.610634" lon="11.620791">
        <ele>412.5</ele>
        <time>2022-05-12T02:30:43.6120000+00:00</time>
      </trkpt>
      <trkpt lat="48.610668" lon="11.620793">
        <ele>412.48</ele>
        <time>2022-05-12T02:30:44.5290000+00:00</time>
      </trkpt>
      <trkpt lat="48.610634" lon="11.620791">
        <ele>412.5</ele>
        <time>2022-05-12T02:30:45.4460000+00:00</time>
      </trkpt>
      <trkpt lat="48.610599" lon="11.621034">
        <ele>413.3</ele>
        <time>2022-05-12T02:30:49.8790000+00:00</time>
      </trkpt>
      <trkpt lat="48.610856" lon="11.621328">
        <ele>413.91</ele>
        <time>2022-05-12T02:30:58.5650000+00:00</time>
      </trkpt>
      <trkpt lat="48.610885" lon="11.62128">
        <ele>413.75</ele>
        <time>2022-05-12T02:30:59.7240000+00:00</time>
      </trkpt>
      <trkpt lat="48.611044" lon="11.620923">
        <ele>412.56</ele>
        <time>2022-05-12T02:31:07.3950000+00:00</time>
      </trkpt>
      <trkpt lat="48.611181" lon="11.620522">
        <ele>411.66</ele>
        <time>2022-05-12T02:31:15.4390000+00:00</time>
      </trkpt>
      <trkpt lat="48.611395" lon="11.619603">
        <ele>410.71</ele>
        <time>2022-05-12T02:31:32.8040000+00:00</time>
      </trkpt>
      <trkpt lat="48.611542" lon="11.619189">
        <ele>410.79</ele>
        <time>2022-05-12T02:31:41.1790000+00:00</time>
      </trkpt>
      <trkpt lat="48.611629" lon="11.619005">
        <ele>410.93</ele>
        <time>2022-05-12T02:31:45.2100000+00:00</time>
      </trkpt>
      <trkpt lat="48.611777" lon="11.618848">
        <ele>411.39</ele>
        <time>2022-05-12T02:31:50.0830000+00:00</time>
      </trkpt>
      <trkpt lat="48.611922" lon="11.618522">
        <ele>411.35</ele>
        <time>2022-05-12T02:31:57.0850000+00:00</time>
      </trkpt>
      <trkpt lat="48.612731" lon="11.616223">
        <ele>405.17</ele>
        <time>2022-05-12T02:32:43.4990000+00:00</time>
      </trkpt>
      <trkpt lat="48.612894" lon="11.615874">
        <ele>404.72</ele>
        <time>2022-05-12T02:32:51.1140000+00:00</time>
      </trkpt>
      <trkpt lat="48.613236" lon="11.615226">
        <ele>403.83</ele>
        <time>2022-05-12T02:33:05.8900000+00:00</time>
      </trkpt>
      <trkpt lat="48.613574" lon="11.614812">
        <ele>402.84</ele>
        <time>2022-05-12T02:33:17.6140000+00:00</time>
      </trkpt>
      <trkpt lat="48.614074" lon="11.614454">
        <ele>402.52</ele>
        <time>2022-05-12T02:33:32.5260000+00:00</time>
      </trkpt>
      <trkpt lat="48.614378" lon="11.614343">
        <ele>403.02</ele>
        <time>2022-05-12T02:33:40.9550000+00:00</time>
      </trkpt>
      <trkpt lat="48.614774" lon="11.614275">
        <ele>403.42</ele>
        <time>2022-05-12T02:33:51.6980000+00:00</time>
      </trkpt>
      <trkpt lat="48.615765" lon="11.614215">
        <ele>404.56</ele>
        <time>2022-05-12T02:34:18.4320000+00:00</time>
      </trkpt>
      <trkpt lat="48.615983" lon="11.614169">
        <ele>404.9</ele>
        <time>2022-05-12T02:34:24.3660000+00:00</time>
      </trkpt>
      <trkpt lat="48.61622" lon="11.614085">
        <ele>405.31</ele>
        <time>2022-05-12T02:34:30.9270000+00:00</time>
      </trkpt>
      <trkpt lat="48.616595" lon="11.613888">
        <ele>406.53</ele>
        <time>2022-05-12T02:34:41.6280000+00:00</time>
      </trkpt>
      <trkpt lat="48.616642" lon="11.61389">
        <ele>406.75</ele>
        <time>2022-05-12T02:34:42.8950000+00:00</time>
      </trkpt>
      <trkpt lat="48.616849" lon="11.614016">
        <ele>407.85</ele>
        <time>2022-05-12T02:34:48.9090000+00:00</time>
      </trkpt>
      <trkpt lat="48.61691" lon="11.613998">
        <ele>408.08</ele>
        <time>2022-05-12T02:34:50.5840000+00:00</time>
      </trkpt>
      <trkpt lat="48.617046" lon="11.613814">
        <ele>408.34</ele>
        <time>2022-05-12T02:34:55.5030000+00:00</time>
      </trkpt>
      <trkpt lat="48.617468" lon="11.613132">
        <ele>407.27</ele>
        <time>2022-05-12T02:35:12.1490000+00:00</time>
      </trkpt>
      <trkpt lat="48.618808" lon="11.611426">
        <ele>404.55</ele>
        <time>2022-05-12T02:35:59.3590000+00:00</time>
      </trkpt>
      <trkpt lat="48.619528" lon="11.610432">
        <ele>404.3</ele>
        <time>2022-05-12T02:36:25.6350000+00:00</time>
      </trkpt>
      <trkpt lat="48.620033" lon="11.609629">
        <ele>404.86</ele>
        <time>2022-05-12T02:36:45.3840000+00:00</time>
      </trkpt>
      <trkpt lat="48.620255" lon="11.609211">
        <ele>405.37</ele>
        <time>2022-05-12T02:36:54.9380000+00:00</time>
      </trkpt>
      <trkpt lat="48.620648" lon="11.608405">
        <ele>405.37</ele>
        <time>2022-05-12T02:37:12.7840000+00:00</time>
      </trkpt>
      <trkpt lat="48.620845" lon="11.607954">
        <ele>404.88</ele>
        <time>2022-05-12T02:37:22.4170000+00:00</time>
      </trkpt>
      <trkpt lat="48.621166" lon="11.607129">
        <ele>405.08</ele>
        <time>2022-05-12T02:37:39.4740000+00:00</time>
      </trkpt>
      <trkpt lat="48.621365" lon="11.606709">
        <ele>405.77</ele>
        <time>2022-05-12T02:37:48.6820000+00:00</time>
      </trkpt>
      <trkpt lat="48.621722" lon="11.606031">
        <ele>405.48</ele>
        <time>2022-05-12T02:38:04.1270000+00:00</time>
      </trkpt>
      <trkpt lat="48.62231" lon="11.605164">
        <ele>405</ele>
        <time>2022-05-12T02:38:26.2600000+00:00</time>
      </trkpt>
      <trkpt lat="48.622567" lon="11.604823">
        <ele>404.49</ele>
        <time>2022-05-12T02:38:35.4750000+00:00</time>
      </trkpt>
      <trkpt lat="48.622654" lon="11.604673">
        <ele>404.23</ele>
        <time>2022-05-12T02:38:39.0300000+00:00</time>
      </trkpt>
      <trkpt lat="48.623275" lon="11.603956">
        <ele>404.65</ele>
        <time>2022-05-12T02:39:00.0880000+00:00</time>
      </trkpt>
      <trkpt lat="48.623545" lon="11.603606">
        <ele>404.68</ele>
        <time>2022-05-12T02:39:09.6720000+00:00</time>
      </trkpt>
      <trkpt lat="48.624098" lon="11.602776">
        <ele>407.73</ele>
        <time>2022-05-12T02:39:30.6690000+00:00</time>
      </trkpt>
      <trkpt lat="48.624611" lon="11.601555">
        <ele>410.21</ele>
        <time>2022-05-12T02:39:56.4470000+00:00</time>
      </trkpt>
      <trkpt lat="48.625398" lon="11.599396">
        <ele>403.93</ele>
        <time>2022-05-12T02:40:40.3760000+00:00</time>
      </trkpt>
      <trkpt lat="48.625725" lon="11.59838">
        <ele>402.11</ele>
        <time>2022-05-12T02:41:00.5100000+00:00</time>
      </trkpt>
      <trkpt lat="48.626161" lon="11.597103">
        <ele>402.24</ele>
        <time>2022-05-12T02:41:26.1180000+00:00</time>
      </trkpt>
      <trkpt lat="48.626477" lon="11.59608">
        <ele>402.34</ele>
        <time>2022-05-12T02:41:46.2370000+00:00</time>
      </trkpt>
      <trkpt lat="48.626554" lon="11.59608">
        <ele>402.7</ele>
        <time>2022-05-12T02:41:48.3120000+00:00</time>
      </trkpt>
      <trkpt lat="48.626648" lon="11.596042">
        <ele>403.02</ele>
        <time>2022-05-12T02:41:50.9350000+00:00</time>
      </trkpt>
      <trkpt lat="48.626749" lon="11.595889">
        <ele>402.98</ele>
        <time>2022-05-12T02:41:54.7870000+00:00</time>
      </trkpt>
      <trkpt lat="48.627533" lon="11.594447">
        <ele>400.84</ele>
        <time>2022-05-12T02:42:28.0540000+00:00</time>
      </trkpt>
      <trkpt lat="48.628511" lon="11.592821">
        <ele>399.82</ele>
        <time>2022-05-12T02:43:07.2220000+00:00</time>
      </trkpt>
      <trkpt lat="48.629502" lon="11.591291">
        <ele>399.2</ele>
        <time>2022-05-12T02:43:45.3870000+00:00</time>
      </trkpt>
      <trkpt lat="48.629939" lon="11.59075">
        <ele>399.32</ele>
        <time>2022-05-12T02:44:00.6070000+00:00</time>
      </trkpt>
      <trkpt lat="48.630335" lon="11.590354">
        <ele>398.97</ele>
        <time>2022-05-12T02:44:13.4020000+00:00</time>
      </trkpt>
      <trkpt lat="48.630662" lon="11.590111">
        <ele>397.99</ele>
        <time>2022-05-12T02:44:23.2220000+00:00</time>
      </trkpt>
      <trkpt lat="48.631902" lon="11.588752">
        <ele>395.18</ele>
        <time>2022-05-12T02:45:04.4940000+00:00</time>
      </trkpt>
      <trkpt lat="48.632077" lon="11.588311">
        <ele>395.01</ele>
        <time>2022-05-12T02:45:13.6580000+00:00</time>
      </trkpt>
      <trkpt lat="48.632124" lon="11.588142">
        <ele>394.98</ele>
        <time>2022-05-12T02:45:16.9240000+00:00</time>
      </trkpt>
      <trkpt lat="48.632279" lon="11.588191">
        <ele>394.27</ele>
        <time>2022-05-12T02:45:21.1920000+00:00</time>
      </trkpt>
      <trkpt lat="48.632336" lon="11.587872">
        <ele>394.24</ele>
        <time>2022-05-12T02:45:27.0790000+00:00</time>
      </trkpt>
      <trkpt lat="48.632466" lon="11.586594">
        <ele>394.13</ele>
        <time>2022-05-12T02:45:50.1140000+00:00</time>
      </trkpt>
      <trkpt lat="48.632651" lon="11.58568">
        <ele>392.25</ele>
        <time>2022-05-12T02:46:07.1430000+00:00</time>
      </trkpt>
      <trkpt lat="48.632567" lon="11.58426">
        <ele>388.9</ele>
        <time>2022-05-12T02:46:32.5410000+00:00</time>
      </trkpt>
      <trkpt lat="48.632488" lon="11.584273">
        <ele>388.98</ele>
        <time>2022-05-12T02:46:34.6830000+00:00</time>
      </trkpt>
      <trkpt lat="48.632567" lon="11.58426">
        <ele>388.9</ele>
        <time>2022-05-12T02:46:36.8240000+00:00</time>
      </trkpt>
      <trkpt lat="48.632557" lon="11.584078">
        <ele>388.62</ele>
        <time>2022-05-12T02:46:40.0780000+00:00</time>
      </trkpt>
      <trkpt lat="48.633336" lon="11.58376">
        <ele>387.46</ele>
        <time>2022-05-12T02:47:01.8270000+00:00</time>
      </trkpt>
      <trkpt lat="48.634394" lon="11.583375">
        <ele>387</ele>
        <time>2022-05-12T02:47:31.1590000+00:00</time>
      </trkpt>
      <trkpt lat="48.638675" lon="11.583213">
        <ele>387.53</ele>
        <time>2022-05-12T02:49:26.5910000+00:00</time>
      </trkpt>
      <trkpt lat="48.638876" lon="11.583259">
        <ele>387.36</ele>
        <time>2022-05-12T02:49:32.0700000+00:00</time>
      </trkpt>
      <trkpt lat="48.638966" lon="11.583332">
        <ele>387.25</ele>
        <time>2022-05-12T02:49:34.8230000+00:00</time>
      </trkpt>
      <trkpt lat="48.639832" lon="11.584352">
        <ele>386.38</ele>
        <time>2022-05-12T02:50:04.4030000+00:00</time>
      </trkpt>
      <trkpt lat="48.640362" lon="11.584874">
        <ele>386.52</ele>
        <time>2022-05-12T02:50:21.4490000+00:00</time>
      </trkpt>
      <trkpt lat="48.641226" lon="11.585789">
        <ele>384.88</ele>
        <time>2022-05-12T02:50:49.8740000+00:00</time>
      </trkpt>
      <trkpt lat="48.642982" lon="11.587542">
        <ele>384.14</ele>
        <time>2022-05-12T02:51:46.5780000+00:00</time>
      </trkpt>
      <trkpt lat="48.643529" lon="11.588127">
        <ele>384.62</ele>
        <time>2022-05-12T02:52:04.6320000+00:00</time>
      </trkpt>
      <trkpt lat="48.643832" lon="11.588334">
        <ele>384.17</ele>
        <time>2022-05-12T02:52:13.5930000+00:00</time>
      </trkpt>
      <trkpt lat="48.649378" lon="11.59105">
        <ele>381.33</ele>
        <time>2022-05-12T02:54:50.7190000+00:00</time>
      </trkpt>
      <trkpt lat="48.649766" lon="11.591268">
        <ele>381.04</ele>
        <time>2022-05-12T02:55:01.8750000+00:00</time>
      </trkpt>
      <trkpt lat="48.651619" lon="11.593431">
        <ele>381.71</ele>
        <time>2022-05-12T02:56:04.9500000+00:00</time>
      </trkpt>
      <trkpt lat="48.652794" lon="11.594754">
        <ele>381</ele>
        <time>2022-05-12T02:56:44.4240000+00:00</time>
      </trkpt>
      <trkpt lat="48.653876" lon="11.595748">
        <ele>381.04</ele>
        <time>2022-05-12T02:57:18.5410000+00:00</time>
      </trkpt>
      <trkpt lat="48.654823" lon="11.596574">
        <ele>379.79</ele>
        <time>2022-05-12T02:57:48.0020000+00:00</time>
      </trkpt>
      <trkpt lat="48.655688" lon="11.59498">
        <ele>379.91</ele>
        <time>2022-05-12T02:58:24.7340000+00:00</time>
      </trkpt>
      <trkpt lat="48.655856" lon="11.594968">
        <ele>380.13</ele>
        <time>2022-05-12T02:58:29.2680000+00:00</time>
      </trkpt>
      <trkpt lat="48.657234" lon="11.595926">
        <ele>380.63</ele>
        <time>2022-05-12T02:59:10.1420000+00:00</time>
      </trkpt>
      <trkpt lat="48.657334" lon="11.595957">
        <ele>380.71</ele>
        <time>2022-05-12T02:59:12.8930000+00:00</time>
      </trkpt>
      <trkpt lat="48.657433" lon="11.595926">
        <ele>380.87</ele>
        <time>2022-05-12T02:59:15.6180000+00:00</time>
      </trkpt>
      <trkpt lat="48.658235" lon="11.595056">
        <ele>382.7</ele>
        <time>2022-05-12T02:59:42.2140000+00:00</time>
      </trkpt>
      <trkpt lat="48.658339" lon="11.59489">
        <ele>383.25</ele>
        <time>2022-05-12T02:59:46.2870000+00:00</time>
      </trkpt>
      <trkpt lat="48.658579" lon="11.594582">
        <ele>384.64</ele>
        <time>2022-05-12T02:59:54.7680000+00:00</time>
      </trkpt>
      <trkpt lat="48.658743" lon="11.594508">
        <ele>384.54</ele>
        <time>2022-05-12T02:59:59.3810000+00:00</time>
      </trkpt>
      <trkpt lat="48.659579" lon="11.594362">
        <ele>382.52</ele>
        <time>2022-05-12T03:00:22.0650000+00:00</time>
      </trkpt>
      <trkpt lat="48.660115" lon="11.594591">
        <ele>382.67</ele>
        <time>2022-05-12T03:00:37.0770000+00:00</time>
      </trkpt>
      <trkpt lat="48.661118" lon="11.595118">
        <ele>386.07</ele>
        <time>2022-05-12T03:01:05.6960000+00:00</time>
      </trkpt>
      <trkpt lat="48.661778" lon="11.595503">
        <ele>388.02</ele>
        <time>2022-05-12T03:01:24.7610000+00:00</time>
      </trkpt>
      <trkpt lat="48.661968" lon="11.595553">
        <ele>388.73</ele>
        <time>2022-05-12T03:01:29.9590000+00:00</time>
      </trkpt>
      <trkpt lat="48.662073" lon="11.595555">
        <ele>388.88</ele>
        <time>2022-05-12T03:01:32.7900000+00:00</time>
      </trkpt>
      <trkpt lat="48.662444" lon="11.595496">
        <ele>389.76</ele>
        <time>2022-05-12T03:01:42.8450000+00:00</time>
      </trkpt>
      <trkpt lat="48.662591" lon="11.595502">
        <ele>389.94</ele>
        <time>2022-05-12T03:01:46.8090000+00:00</time>
      </trkpt>
      <trkpt lat="48.662684" lon="11.595548">
        <ele>389.84</ele>
        <time>2022-05-12T03:01:49.4460000+00:00</time>
      </trkpt>
      <trkpt lat="48.663011" lon="11.595869">
        <ele>390</ele>
        <time>2022-05-12T03:01:59.9510000+00:00</time>
      </trkpt>
      <trkpt lat="48.663119" lon="11.595914">
        <ele>390.54</ele>
        <time>2022-05-12T03:02:02.9710000+00:00</time>
      </trkpt>
      <trkpt lat="48.663484" lon="11.595927">
        <ele>392.99</ele>
        <time>2022-05-12T03:02:12.8120000+00:00</time>
      </trkpt>
      <trkpt lat="48.663584" lon="11.595968">
        <ele>393.52</ele>
        <time>2022-05-12T03:02:15.6050000+00:00</time>
      </trkpt>
      <trkpt lat="48.663709" lon="11.596106">
        <ele>394.37</ele>
        <time>2022-05-12T03:02:19.7750000+00:00</time>
      </trkpt>
      <trkpt lat="48.663946" lon="11.596491">
        <ele>395.29</ele>
        <time>2022-05-12T03:02:29.1450000+00:00</time>
      </trkpt>
      <trkpt lat="48.664236" lon="11.596874">
        <ele>396.46</ele>
        <time>2022-05-12T03:02:39.5180000+00:00</time>
      </trkpt>
      <trkpt lat="48.664743" lon="11.59745">
        <ele>397.46</ele>
        <time>2022-05-12T03:02:56.6040000+00:00</time>
      </trkpt>
      <trkpt lat="48.665429" lon="11.598515">
        <ele>396.87</ele>
        <time>2022-05-12T03:03:23.0880000+00:00</time>
      </trkpt>
      <trkpt lat="48.666007" lon="11.599178">
        <ele>388.82</ele>
        <time>2022-05-12T03:03:42.6340000+00:00</time>
      </trkpt>
      <trkpt lat="48.667052" lon="11.599987">
        <ele>383.44</ele>
        <time>2022-05-12T03:04:14.2710000+00:00</time>
      </trkpt>
      <trkpt lat="48.667721" lon="11.600458">
        <ele>380.56</ele>
        <time>2022-05-12T03:04:34.1580000+00:00</time>
      </trkpt>
      <trkpt lat="48.66802" lon="11.600778">
        <ele>378.99</ele>
        <time>2022-05-12T03:04:44.0280000+00:00</time>
      </trkpt>
      <trkpt lat="48.66819" lon="11.600999">
        <ele>378.3</ele>
        <time>2022-05-12T03:04:50.0670000+00:00</time>
      </trkpt>
      <trkpt lat="48.668224" lon="11.600975">
        <ele>378.32</ele>
        <time>2022-05-12T03:04:51.0780000+00:00</time>
      </trkpt>
      <trkpt lat="48.668212" lon="11.600925">
        <ele>378.41</ele>
        <time>2022-05-12T03:04:52.0250000+00:00</time>
      </trkpt>
      <trkpt lat="48.668224" lon="11.600975">
        <ele>378.32</ele>
        <time>2022-05-12T03:04:52.9730000+00:00</time>
      </trkpt>
      <trkpt lat="48.66819" lon="11.600999">
        <ele>378.3</ele>
        <time>2022-05-12T03:04:53.9840000+00:00</time>
      </trkpt>
      <trkpt lat="48.669003" lon="11.602563">
        <ele>377.02</ele>
        <time>2022-05-12T03:05:29.4160000+00:00</time>
      </trkpt>
      <trkpt lat="48.669111" lon="11.602737">
        <ele>376.98</ele>
        <time>2022-05-12T03:05:33.6660000+00:00</time>
      </trkpt>
      <trkpt lat="48.669551" lon="11.603345">
        <ele>376.92</ele>
        <time>2022-05-12T03:05:49.7230000+00:00</time>
      </trkpt>
      <trkpt lat="48.670423" lon="11.604111">
        <ele>375.92</ele>
        <time>2022-05-12T03:06:16.8970000+00:00</time>
      </trkpt>
      <trkpt lat="48.671233" lon="11.60506">
        <ele>376.15</ele>
        <time>2022-05-12T03:06:44.5030000+00:00</time>
      </trkpt>
      <trkpt lat="48.671414" lon="11.605192">
        <ele>376.37</ele>
        <time>2022-05-12T03:06:49.9180000+00:00</time>
      </trkpt>
      <trkpt lat="48.671116" lon="11.605745">
        <ele>376</ele>
        <time>2022-05-12T03:07:02.6230000+00:00</time>
      </trkpt>
      <trkpt lat="48.671078" lon="11.605869">
        <ele>376</ele>
        <time>2022-05-12T03:07:05.0570000+00:00</time>
      </trkpt>
      <trkpt lat="48.671089" lon="11.60599">
        <ele>376</ele>
        <time>2022-05-12T03:07:07.2310000+00:00</time>
      </trkpt>
      <trkpt lat="48.671995" lon="11.609453">
        <ele>375.11</ele>
        <time>2022-05-12T03:08:13.5360000+00:00</time>
      </trkpt>
      <trkpt lat="48.672166" lon="11.609913">
        <ele>375.78</ele>
        <time>2022-05-12T03:08:22.9330000+00:00</time>
      </trkpt>
      <trkpt lat="48.672261" lon="11.610256">
        <ele>376.3</ele>
        <time>2022-05-12T03:08:29.5530000+00:00</time>
      </trkpt>
      <trkpt lat="48.671897" lon="11.610522">
        <ele>376.46</ele>
        <time>2022-05-12T03:08:40.4480000+00:00</time>
      </trkpt>
      <trkpt lat="48.671749" lon="11.610059">
        <ele>375.75</ele>
        <time>2022-05-12T03:08:49.6040000+00:00</time>
      </trkpt>
      <trkpt lat="48.671897" lon="11.610522">
        <ele>376.46</ele>
        <time>2022-05-12T03:08:58.7610000+00:00</time>
      </trkpt>
      <trkpt lat="48.672261" lon="11.610256">
        <ele>376.3</ele>
        <time>2022-05-12T03:09:09.6550000+00:00</time>
      </trkpt>
      <trkpt lat="48.672345" lon="11.61025">
        <ele>376.4</ele>
        <time>2022-05-12T03:09:11.9220000+00:00</time>
      </trkpt>
      <trkpt lat="48.673766" lon="11.60919">
        <ele>376</ele>
        <time>2022-05-12T03:09:54.6200000+00:00</time>
      </trkpt>
      <trkpt lat="48.674051" lon="11.609109">
        <ele>376</ele>
        <time>2022-05-12T03:10:02.4370000+00:00</time>
      </trkpt>
      <trkpt lat="48.674436" lon="11.609052">
        <ele>376</ele>
        <time>2022-05-12T03:10:12.8640000+00:00</time>
      </trkpt>
      <trkpt lat="48.674718" lon="11.609079">
        <ele>376.33</ele>
        <time>2022-05-12T03:10:20.4810000+00:00</time>
      </trkpt>
      <trkpt lat="48.674986" lon="11.609164">
        <ele>376.52</ele>
        <time>2022-05-12T03:10:27.8620000+00:00</time>
      </trkpt>
      <trkpt lat="48.675535" lon="11.609548">
        <ele>376</ele>
        <time>2022-05-12T03:10:44.1620000+00:00</time>
      </trkpt>
      <trkpt lat="48.675571" lon="11.609619">
        <ele>376</ele>
        <time>2022-05-12T03:10:45.7560000+00:00</time>
      </trkpt>
      <trkpt lat="48.675977" lon="11.609845">
        <ele>376</ele>
        <time>2022-05-12T03:10:57.4150000+00:00</time>
      </trkpt>
      <trkpt lat="48.676037" lon="11.609921">
        <ele>376</ele>
        <time>2022-05-12T03:10:59.5240000+00:00</time>
      </trkpt>
      <trkpt lat="48.676168" lon="11.610768">
        <ele>375.96</ele>
        <time>2022-05-12T03:11:15.0080000+00:00</time>
      </trkpt>
      <trkpt lat="48.676212" lon="11.610953">
        <ele>375.9</ele>
        <time>2022-05-12T03:11:18.5080000+00:00</time>
      </trkpt>
      <trkpt lat="48.676591" lon="11.611016">
        <ele>375.51</ele>
        <time>2022-05-12T03:11:28.7850000+00:00</time>
      </trkpt>
      <trkpt lat="48.677091" lon="11.611035">
        <ele>374.93</ele>
        <time>2022-05-12T03:11:42.2670000+00:00</time>
      </trkpt>
      <trkpt lat="48.677526" lon="11.611288">
        <ele>374.45</ele>
        <time>2022-05-12T03:11:54.8280000+00:00</time>
      </trkpt>
      <trkpt lat="48.677751" lon="11.611577">
        <ele>374.53</ele>
        <time>2022-05-12T03:12:02.7800000+00:00</time>
      </trkpt>
      <trkpt lat="48.678264" lon="11.612433">
        <ele>375.22</ele>
        <time>2022-05-12T03:12:23.3550000+00:00</time>
      </trkpt>
      <trkpt lat="48.678314" lon="11.612368">
        <ele>375.16</ele>
        <time>2022-05-12T03:12:25.1310000+00:00</time>
      </trkpt>
      <trkpt lat="48.678267" lon="11.612291">
        <ele>375.15</ele>
        <time>2022-05-12T03:12:26.9980000+00:00</time>
      </trkpt>
      <trkpt lat="48.678314" lon="11.612368">
        <ele>375.16</ele>
        <time>2022-05-12T03:12:28.8640000+00:00</time>
      </trkpt>
      <trkpt lat="48.678606" lon="11.611992">
        <ele>375.01</ele>
        <time>2022-05-12T03:12:39.1950000+00:00</time>
      </trkpt>
      <trkpt lat="48.67881" lon="11.611681">
        <ele>374.88</ele>
        <time>2022-05-12T03:12:46.9980000+00:00</time>
      </trkpt>
      <trkpt lat="48.679025" lon="11.611326">
        <ele>374.71</ele>
        <time>2022-05-12T03:12:55.5710000+00:00</time>
      </trkpt>
      <trkpt lat="48.67918" lon="11.611014">
        <ele>374.34</ele>
        <time>2022-05-12T03:13:02.5210000+00:00</time>
      </trkpt>
      <trkpt lat="48.680592" lon="11.613166">
        <ele>376.5</ele>
        <time>2022-05-12T03:13:56.5170000+00:00</time>
      </trkpt>
      <trkpt lat="48.680567" lon="11.6132">
        <ele>376.58</ele>
        <time>2022-05-12T03:13:57.4230000+00:00</time>
      </trkpt>
      <trkpt lat="48.680592" lon="11.613166">
        <ele>376.5</ele>
        <time>2022-05-12T03:13:58.3290000+00:00</time>
      </trkpt>
      <trkpt lat="48.681606" lon="11.614706">
        <ele>375.29</ele>
        <time>2022-05-12T03:14:37.0360000+00:00</time>
      </trkpt>
      <trkpt lat="48.681671" lon="11.614659">
        <ele>375.25</ele>
        <time>2022-05-12T03:14:38.9780000+00:00</time>
      </trkpt>
      <trkpt lat="48.681701" lon="11.614746">
        <ele>375.19</ele>
        <time>2022-05-12T03:14:40.7250000+00:00</time>
      </trkpt>
      <trkpt lat="48.681671" lon="11.614659">
        <ele>375.25</ele>
        <time>2022-05-12T03:14:42.4710000+00:00</time>
      </trkpt>
      <trkpt lat="48.681824" lon="11.614548">
        <ele>375.12</ele>
        <time>2022-05-12T03:14:47.0440000+00:00</time>
      </trkpt>
      <trkpt lat="48.682102" lon="11.614214">
        <ele>376</ele>
        <time>2022-05-12T03:14:56.6090000+00:00</time>
      </trkpt>
      <trkpt lat="48.682307" lon="11.613812">
        <ele>377.81</ele>
        <time>2022-05-12T03:15:05.6490000+00:00</time>
      </trkpt>
      <trkpt lat="48.682434" lon="11.613475">
        <ele>379.55</ele>
        <time>2022-05-12T03:15:12.5550000+00:00</time>
      </trkpt>
      <trkpt lat="48.682467" lon="11.613253">
        <ele>380.65</ele>
        <time>2022-05-12T03:15:16.6040000+00:00</time>
      </trkpt>
      <trkpt lat="48.683258" lon="11.613323">
        <ele>383.54</ele>
        <time>2022-05-12T03:15:37.9620000+00:00</time>
      </trkpt>
      <trkpt lat="48.683662" lon="11.6133">
        <ele>384.95</ele>
        <time>2022-05-12T03:15:48.8600000+00:00</time>
      </trkpt>
      <trkpt lat="48.683729" lon="11.613263">
        <ele>385.37</ele>
        <time>2022-05-12T03:15:50.7820000+00:00</time>
      </trkpt>
      <trkpt lat="48.683784" lon="11.613197">
        <ele>385.85</ele>
        <time>2022-05-12T03:15:52.6740000+00:00</time>
      </trkpt>
      <trkpt lat="48.683957" lon="11.613129">
        <ele>386.71</ele>
        <time>2022-05-12T03:15:57.4910000+00:00</time>
      </trkpt>
      <trkpt lat="48.684017" lon="11.61307">
        <ele>387.12</ele>
        <time>2022-05-12T03:15:59.4200000+00:00</time>
      </trkpt>
      <trkpt lat="48.684028" lon="11.613098">
        <ele>387.05</ele>
        <time>2022-05-12T03:16:00.0000000+00:00</time>
      </trkpt>
    </trkseg>
  </trk>
</gpx>